<?xml version="1.0" encoding="UTF-8" standalone="no" ?>
<gpx xmlns="http://www.topografix.com/GPX/1/1" xmlns:xsi="http://www.w3.org/2001/XMLSchema-instance" xsi:schemaLocation="http://www.topografix.com/GPX/1/1 http://www.topografix.com/GPX/1/1/gpx.xsd" version="1.1" creator="VisuGPX - https://www.visugpx.com">
  <metadata>
    <name>Estillac 10.4 km</name>
  </metadata>
  <trk>
    <name><![CDATA[Estillac 10.4 km]]></name>
    <extensions>
      <line xmlns="http://www.topografix.com/GPX/gpx_style/0/2">
        <color>0000FF</color>
        <width>4</width>
      </line>
    </extensions>
    <trkseg>
      <trkpt lat="44.16708" lon="0.57583">
        <ele>74.5</ele>
        <time>2025-08-31T07:02:07.000Z</time>
      </trkpt>
      <trkpt lat="44.16714" lon="0.57583">
        <ele>74.3</ele>
        <time>2025-08-31T07:02:09.000Z</time>
      </trkpt>
      <trkpt lat="44.1672" lon="0.57575">
        <ele>74.1</ele>
        <time>2025-08-31T07:03:57.000Z</time>
      </trkpt>
      <trkpt lat="44.16724" lon="0.57563">
        <ele>74</ele>
        <time>2025-08-31T07:04:07.000Z</time>
      </trkpt>
      <trkpt lat="44.16728" lon="0.5755">
        <ele>74</ele>
        <time>2025-08-31T07:04:17.000Z</time>
      </trkpt>
      <trkpt lat="44.16731" lon="0.57537">
        <ele>74</ele>
        <time>2025-08-31T07:04:27.000Z</time>
      </trkpt>
      <trkpt lat="44.16731" lon="0.57523">
        <ele>74</ele>
        <time>2025-08-31T07:04:35.000Z</time>
      </trkpt>
      <trkpt lat="44.16734" lon="0.57512">
        <ele>74</ele>
        <time>2025-08-31T07:04:43.000Z</time>
      </trkpt>
      <trkpt lat="44.16737" lon="0.575">
        <ele>74</ele>
        <time>2025-08-31T07:04:51.000Z</time>
      </trkpt>
      <trkpt lat="44.16743" lon="0.5749">
        <ele>73.9</ele>
        <time>2025-08-31T07:04:59.000Z</time>
      </trkpt>
      <trkpt lat="44.16748" lon="0.57479">
        <ele>73.9</ele>
        <time>2025-08-31T07:05:07.000Z</time>
      </trkpt>
      <trkpt lat="44.16753" lon="0.57469">
        <ele>74</ele>
        <time>2025-08-31T07:05:17.000Z</time>
      </trkpt>
      <trkpt lat="44.16759" lon="0.57458">
        <ele>74</ele>
        <time>2025-08-31T07:05:27.000Z</time>
      </trkpt>
      <trkpt lat="44.16765" lon="0.57448">
        <ele>74</ele>
        <time>2025-08-31T07:05:37.000Z</time>
      </trkpt>
      <trkpt lat="44.16772" lon="0.57438">
        <ele>74</ele>
        <time>2025-08-31T07:05:45.000Z</time>
      </trkpt>
      <trkpt lat="44.16781" lon="0.5743">
        <ele>74</ele>
        <time>2025-08-31T07:05:53.000Z</time>
      </trkpt>
      <trkpt lat="44.16788" lon="0.57421">
        <ele>73.9</ele>
        <time>2025-08-31T07:06:01.000Z</time>
      </trkpt>
      <trkpt lat="44.16795" lon="0.57413">
        <ele>74</ele>
        <time>2025-08-31T07:06:09.000Z</time>
      </trkpt>
      <trkpt lat="44.16802" lon="0.57405">
        <ele>73.9</ele>
        <time>2025-08-31T07:06:19.000Z</time>
      </trkpt>
      <trkpt lat="44.16808" lon="0.57396">
        <ele>74</ele>
        <time>2025-08-31T07:06:25.000Z</time>
      </trkpt>
      <trkpt lat="44.16815" lon="0.57388">
        <ele>74</ele>
        <time>2025-08-31T07:06:33.000Z</time>
      </trkpt>
      <trkpt lat="44.16823" lon="0.57377">
        <ele>74</ele>
        <time>2025-08-31T07:06:41.000Z</time>
      </trkpt>
      <trkpt lat="44.16831" lon="0.57368">
        <ele>74</ele>
        <time>2025-08-31T07:06:49.000Z</time>
      </trkpt>
      <trkpt lat="44.16837" lon="0.57358">
        <ele>73.9</ele>
        <time>2025-08-31T07:06:57.000Z</time>
      </trkpt>
      <trkpt lat="44.16843" lon="0.57348">
        <ele>73.8</ele>
        <time>2025-08-31T07:07:05.000Z</time>
      </trkpt>
      <trkpt lat="44.16851" lon="0.57339">
        <ele>73.9</ele>
        <time>2025-08-31T07:07:13.000Z</time>
      </trkpt>
      <trkpt lat="44.16857" lon="0.57328">
        <ele>74</ele>
        <time>2025-08-31T07:07:21.000Z</time>
      </trkpt>
      <trkpt lat="44.16865" lon="0.57318">
        <ele>74</ele>
        <time>2025-08-31T07:07:29.000Z</time>
      </trkpt>
      <trkpt lat="44.16872" lon="0.57309">
        <ele>74</ele>
        <time>2025-08-31T07:07:37.000Z</time>
      </trkpt>
      <trkpt lat="44.1688" lon="0.57301">
        <ele>74</ele>
        <time>2025-08-31T07:07:47.000Z</time>
      </trkpt>
      <trkpt lat="44.16889" lon="0.57298">
        <ele>74</ele>
        <time>2025-08-31T07:08:17.000Z</time>
      </trkpt>
      <trkpt lat="44.16898" lon="0.57294">
        <ele>74</ele>
        <time>2025-08-31T07:08:30.000Z</time>
      </trkpt>
      <trkpt lat="44.16905" lon="0.57285">
        <ele>74</ele>
        <time>2025-08-31T07:08:36.000Z</time>
      </trkpt>
      <trkpt lat="44.16913" lon="0.5728">
        <ele>74</ele>
        <time>2025-08-31T07:08:50.000Z</time>
      </trkpt>
      <trkpt lat="44.16915" lon="0.57267">
        <ele>74</ele>
        <time>2025-08-31T07:09:01.000Z</time>
      </trkpt>
      <trkpt lat="44.16911" lon="0.57257">
        <ele>74</ele>
        <time>2025-08-31T07:09:09.000Z</time>
      </trkpt>
      <trkpt lat="44.169" lon="0.5726">
        <ele>74</ele>
        <time>2025-08-31T07:09:13.000Z</time>
      </trkpt>
      <trkpt lat="44.16891" lon="0.57257">
        <ele>74</ele>
        <time>2025-08-31T07:09:19.000Z</time>
      </trkpt>
      <trkpt lat="44.16883" lon="0.57251">
        <ele>74.2</ele>
        <time>2025-08-31T07:09:31.000Z</time>
      </trkpt>
      <trkpt lat="44.16874" lon="0.57246">
        <ele>74.5</ele>
        <time>2025-08-31T07:09:39.000Z</time>
      </trkpt>
      <trkpt lat="44.16866" lon="0.57239">
        <ele>74.8</ele>
        <time>2025-08-31T07:09:47.000Z</time>
      </trkpt>
      <trkpt lat="44.16858" lon="0.57234">
        <ele>75</ele>
        <time>2025-08-31T07:09:55.000Z</time>
      </trkpt>
      <trkpt lat="44.16849" lon="0.5723">
        <ele>75</ele>
        <time>2025-08-31T07:10:03.000Z</time>
      </trkpt>
      <trkpt lat="44.1684" lon="0.57225">
        <ele>75</ele>
        <time>2025-08-31T07:10:13.000Z</time>
      </trkpt>
      <trkpt lat="44.1683" lon="0.57219">
        <ele>75</ele>
        <time>2025-08-31T07:10:23.000Z</time>
      </trkpt>
      <trkpt lat="44.16822" lon="0.57215">
        <ele>75.1</ele>
        <time>2025-08-31T07:10:33.000Z</time>
      </trkpt>
      <trkpt lat="44.16812" lon="0.5721">
        <ele>75.3</ele>
        <time>2025-08-31T07:10:43.000Z</time>
      </trkpt>
      <trkpt lat="44.16803" lon="0.57202">
        <ele>75.8</ele>
        <time>2025-08-31T07:10:53.000Z</time>
      </trkpt>
      <trkpt lat="44.16794" lon="0.572">
        <ele>76.2</ele>
        <time>2025-08-31T07:11:01.000Z</time>
      </trkpt>
      <trkpt lat="44.16786" lon="0.57197">
        <ele>76.6</ele>
        <time>2025-08-31T07:11:09.000Z</time>
      </trkpt>
      <trkpt lat="44.16778" lon="0.57192">
        <ele>77</ele>
        <time>2025-08-31T07:11:17.000Z</time>
      </trkpt>
      <trkpt lat="44.1677" lon="0.57187">
        <ele>77</ele>
        <time>2025-08-31T07:11:23.000Z</time>
      </trkpt>
      <trkpt lat="44.16761" lon="0.57181">
        <ele>77</ele>
        <time>2025-08-31T07:11:31.000Z</time>
      </trkpt>
      <trkpt lat="44.16753" lon="0.57174">
        <ele>77</ele>
        <time>2025-08-31T07:11:39.000Z</time>
      </trkpt>
      <trkpt lat="44.16744" lon="0.57169">
        <ele>77</ele>
        <time>2025-08-31T07:11:49.000Z</time>
      </trkpt>
      <trkpt lat="44.16735" lon="0.57164">
        <ele>77.1</ele>
        <time>2025-08-31T07:11:57.000Z</time>
      </trkpt>
      <trkpt lat="44.16726" lon="0.57157">
        <ele>77.3</ele>
        <time>2025-08-31T07:12:05.000Z</time>
      </trkpt>
      <trkpt lat="44.16719" lon="0.57148">
        <ele>77.7</ele>
        <time>2025-08-31T07:12:13.000Z</time>
      </trkpt>
      <trkpt lat="44.16712" lon="0.5714">
        <ele>78</ele>
        <time>2025-08-31T07:12:21.000Z</time>
      </trkpt>
      <trkpt lat="44.16705" lon="0.57132">
        <ele>78</ele>
        <time>2025-08-31T07:12:29.000Z</time>
      </trkpt>
      <trkpt lat="44.16698" lon="0.57125">
        <ele>78</ele>
        <time>2025-08-31T07:12:38.000Z</time>
      </trkpt>
      <trkpt lat="44.16693" lon="0.57115">
        <ele>78.1</ele>
        <time>2025-08-31T07:12:45.000Z</time>
      </trkpt>
      <trkpt lat="44.16685" lon="0.57109">
        <ele>78.7</ele>
        <time>2025-08-31T07:12:53.000Z</time>
      </trkpt>
      <trkpt lat="44.16678" lon="0.57103">
        <ele>79.3</ele>
        <time>2025-08-31T07:13:00.000Z</time>
      </trkpt>
      <trkpt lat="44.1667" lon="0.57094">
        <ele>79.8</ele>
        <time>2025-08-31T07:13:07.000Z</time>
      </trkpt>
      <trkpt lat="44.16662" lon="0.57086">
        <ele>80.2</ele>
        <time>2025-08-31T07:13:16.000Z</time>
      </trkpt>
      <trkpt lat="44.16657" lon="0.57075">
        <ele>80.4</ele>
        <time>2025-08-31T07:13:24.000Z</time>
      </trkpt>
      <trkpt lat="44.16651" lon="0.57064">
        <ele>80.6</ele>
        <time>2025-08-31T07:13:32.000Z</time>
      </trkpt>
      <trkpt lat="44.16643" lon="0.57057">
        <ele>80.9</ele>
        <time>2025-08-31T07:13:40.000Z</time>
      </trkpt>
      <trkpt lat="44.16634" lon="0.57051">
        <ele>81.5</ele>
        <time>2025-08-31T07:13:48.000Z</time>
      </trkpt>
      <trkpt lat="44.16625" lon="0.57045">
        <ele>82.2</ele>
        <time>2025-08-31T07:13:56.000Z</time>
      </trkpt>
      <trkpt lat="44.16618" lon="0.57037">
        <ele>82.7</ele>
        <time>2025-08-31T07:14:04.000Z</time>
      </trkpt>
      <trkpt lat="44.1661" lon="0.57028">
        <ele>83.1</ele>
        <time>2025-08-31T07:14:12.000Z</time>
      </trkpt>
      <trkpt lat="44.16603" lon="0.57021">
        <ele>83.6</ele>
        <time>2025-08-31T07:14:20.000Z</time>
      </trkpt>
      <trkpt lat="44.16595" lon="0.57015">
        <ele>84.2</ele>
        <time>2025-08-31T07:14:29.000Z</time>
      </trkpt>
      <trkpt lat="44.16587" lon="0.57007">
        <ele>84.7</ele>
        <time>2025-08-31T07:14:38.000Z</time>
      </trkpt>
      <trkpt lat="44.16582" lon="0.56997">
        <ele>85.2</ele>
        <time>2025-08-31T07:14:46.000Z</time>
      </trkpt>
      <trkpt lat="44.16574" lon="0.56991">
        <ele>85.9</ele>
        <time>2025-08-31T07:14:55.000Z</time>
      </trkpt>
      <trkpt lat="44.16566" lon="0.56982">
        <ele>86.5</ele>
        <time>2025-08-31T07:15:05.000Z</time>
      </trkpt>
      <trkpt lat="44.16559" lon="0.56973">
        <ele>86.9</ele>
        <time>2025-08-31T07:15:12.000Z</time>
      </trkpt>
      <trkpt lat="44.16551" lon="0.56966">
        <ele>87.3</ele>
        <time>2025-08-31T07:15:21.000Z</time>
      </trkpt>
      <trkpt lat="44.16545" lon="0.56955">
        <ele>87.8</ele>
        <time>2025-08-31T07:15:28.000Z</time>
      </trkpt>
      <trkpt lat="44.16539" lon="0.56945">
        <ele>88.2</ele>
        <time>2025-08-31T07:15:36.000Z</time>
      </trkpt>
      <trkpt lat="44.16534" lon="0.56934">
        <ele>88.9</ele>
        <time>2025-08-31T07:15:45.000Z</time>
      </trkpt>
      <trkpt lat="44.1653" lon="0.56921">
        <ele>89.7</ele>
        <time>2025-08-31T07:15:53.000Z</time>
      </trkpt>
      <trkpt lat="44.16526" lon="0.56908">
        <ele>90.4</ele>
        <time>2025-08-31T07:16:01.000Z</time>
      </trkpt>
      <trkpt lat="44.16522" lon="0.56897">
        <ele>91.1</ele>
        <time>2025-08-31T07:16:09.000Z</time>
      </trkpt>
      <trkpt lat="44.16521" lon="0.56883">
        <ele>91.6</ele>
        <time>2025-08-31T07:16:19.000Z</time>
      </trkpt>
      <trkpt lat="44.1652" lon="0.56868">
        <ele>92</ele>
        <time>2025-08-31T07:16:29.000Z</time>
      </trkpt>
      <trkpt lat="44.16518" lon="0.56856">
        <ele>92.7</ele>
        <time>2025-08-31T07:16:37.000Z</time>
      </trkpt>
      <trkpt lat="44.16513" lon="0.56844">
        <ele>94</ele>
        <time>2025-08-31T07:16:45.000Z</time>
      </trkpt>
      <trkpt lat="44.16505" lon="0.56836">
        <ele>95.3</ele>
        <time>2025-08-31T07:16:53.000Z</time>
      </trkpt>
      <trkpt lat="44.16496" lon="0.56832">
        <ele>96.5</ele>
        <time>2025-08-31T07:17:03.000Z</time>
      </trkpt>
      <trkpt lat="44.16487" lon="0.56833">
        <ele>97.4</ele>
        <time>2025-08-31T07:17:11.000Z</time>
      </trkpt>
      <trkpt lat="44.16479" lon="0.56835">
        <ele>98.2</ele>
        <time>2025-08-31T07:17:19.000Z</time>
      </trkpt>
      <trkpt lat="44.16475" lon="0.56824">
        <ele>100.3</ele>
        <time>2025-08-31T07:17:39.000Z</time>
      </trkpt>
      <trkpt lat="44.16468" lon="0.56816">
        <ele>103.1</ele>
        <time>2025-08-31T07:17:51.000Z</time>
      </trkpt>
      <trkpt lat="44.1646" lon="0.5681">
        <ele>105.9</ele>
        <time>2025-08-31T07:18:07.000Z</time>
      </trkpt>
      <trkpt lat="44.16452" lon="0.56805">
        <ele>108.4</ele>
        <time>2025-08-31T07:18:25.000Z</time>
      </trkpt>
      <trkpt lat="44.16444" lon="0.56799">
        <ele>110.5</ele>
        <time>2025-08-31T07:19:23.000Z</time>
      </trkpt>
      <trkpt lat="44.16436" lon="0.56795">
        <ele>111.3</ele>
        <time>2025-08-31T07:19:33.000Z</time>
      </trkpt>
      <trkpt lat="44.16429" lon="0.56787">
        <ele>112.1</ele>
        <time>2025-08-31T07:19:49.000Z</time>
      </trkpt>
      <trkpt lat="44.16422" lon="0.56779">
        <ele>112.8</ele>
        <time>2025-08-31T07:20:47.000Z</time>
      </trkpt>
      <trkpt lat="44.16414" lon="0.5677">
        <ele>113.1</ele>
        <time>2025-08-31T07:20:55.000Z</time>
      </trkpt>
      <trkpt lat="44.16406" lon="0.56761">
        <ele>113.4</ele>
        <time>2025-08-31T07:21:03.000Z</time>
      </trkpt>
      <trkpt lat="44.16398" lon="0.56755">
        <ele>113.7</ele>
        <time>2025-08-31T07:21:11.000Z</time>
      </trkpt>
      <trkpt lat="44.16389" lon="0.56751">
        <ele>114</ele>
        <time>2025-08-31T07:21:19.000Z</time>
      </trkpt>
      <trkpt lat="44.16381" lon="0.56745">
        <ele>114.7</ele>
        <time>2025-08-31T07:21:28.000Z</time>
      </trkpt>
      <trkpt lat="44.16374" lon="0.56737">
        <ele>115.3</ele>
        <time>2025-08-31T07:21:35.000Z</time>
      </trkpt>
      <trkpt lat="44.16366" lon="0.56731">
        <ele>116.2</ele>
        <time>2025-08-31T07:21:43.000Z</time>
      </trkpt>
      <trkpt lat="44.16358" lon="0.56724">
        <ele>117.2</ele>
        <time>2025-08-31T07:21:52.000Z</time>
      </trkpt>
      <trkpt lat="44.16351" lon="0.56716">
        <ele>117.9</ele>
        <time>2025-08-31T07:21:59.000Z</time>
      </trkpt>
      <trkpt lat="44.16343" lon="0.56708">
        <ele>118.9</ele>
        <time>2025-08-31T07:22:07.000Z</time>
      </trkpt>
      <trkpt lat="44.16336" lon="0.56701">
        <ele>120.2</ele>
        <time>2025-08-31T07:22:15.000Z</time>
      </trkpt>
      <trkpt lat="44.16328" lon="0.56693">
        <ele>121.7</ele>
        <time>2025-08-31T07:22:25.000Z</time>
      </trkpt>
      <trkpt lat="44.16319" lon="0.56686">
        <ele>122.9</ele>
        <time>2025-08-31T07:22:35.000Z</time>
      </trkpt>
      <trkpt lat="44.16311" lon="0.56678">
        <ele>124</ele>
        <time>2025-08-31T07:22:43.000Z</time>
      </trkpt>
      <trkpt lat="44.16304" lon="0.56671">
        <ele>125.2</ele>
        <time>2025-08-31T07:22:51.000Z</time>
      </trkpt>
      <trkpt lat="44.16296" lon="0.56664">
        <ele>126.9</ele>
        <time>2025-08-31T07:23:00.000Z</time>
      </trkpt>
      <trkpt lat="44.16288" lon="0.56657">
        <ele>128.6</ele>
        <time>2025-08-31T07:23:09.000Z</time>
      </trkpt>
      <trkpt lat="44.16281" lon="0.5665">
        <ele>130.1</ele>
        <time>2025-08-31T07:23:17.000Z</time>
      </trkpt>
      <trkpt lat="44.16273" lon="0.56641">
        <ele>131.7</ele>
        <time>2025-08-31T07:23:27.000Z</time>
      </trkpt>
      <trkpt lat="44.16266" lon="0.56634">
        <ele>133.5</ele>
        <time>2025-08-31T07:23:37.000Z</time>
      </trkpt>
      <trkpt lat="44.16258" lon="0.56628">
        <ele>135</ele>
        <time>2025-08-31T07:23:47.000Z</time>
      </trkpt>
      <trkpt lat="44.16251" lon="0.56621">
        <ele>136.5</ele>
        <time>2025-08-31T07:23:55.000Z</time>
      </trkpt>
      <trkpt lat="44.16244" lon="0.56614">
        <ele>137.6</ele>
        <time>2025-08-31T07:24:05.000Z</time>
      </trkpt>
      <trkpt lat="44.16236" lon="0.56607">
        <ele>138.7</ele>
        <time>2025-08-31T07:24:14.000Z</time>
      </trkpt>
      <trkpt lat="44.16229" lon="0.566">
        <ele>139.8</ele>
        <time>2025-08-31T07:24:22.000Z</time>
      </trkpt>
      <trkpt lat="44.16221" lon="0.56591">
        <ele>140.9</ele>
        <time>2025-08-31T07:24:32.000Z</time>
      </trkpt>
      <trkpt lat="44.16213" lon="0.56582">
        <ele>142.7</ele>
        <time>2025-08-31T07:24:43.000Z</time>
      </trkpt>
      <trkpt lat="44.16205" lon="0.56574">
        <ele>144.3</ele>
        <time>2025-08-31T07:24:54.000Z</time>
      </trkpt>
      <trkpt lat="44.16196" lon="0.56568">
        <ele>145.7</ele>
        <time>2025-08-31T07:25:04.000Z</time>
      </trkpt>
      <trkpt lat="44.16188" lon="0.5656">
        <ele>147</ele>
        <time>2025-08-31T07:25:14.000Z</time>
      </trkpt>
      <trkpt lat="44.1618" lon="0.5655">
        <ele>148</ele>
        <time>2025-08-31T07:25:24.000Z</time>
      </trkpt>
      <trkpt lat="44.16172" lon="0.56541">
        <ele>148.8</ele>
        <time>2025-08-31T07:26:18.000Z</time>
      </trkpt>
      <trkpt lat="44.16163" lon="0.56532">
        <ele>149.6</ele>
        <time>2025-08-31T07:26:30.000Z</time>
      </trkpt>
      <trkpt lat="44.16154" lon="0.56525">
        <ele>150.3</ele>
        <time>2025-08-31T07:26:44.000Z</time>
      </trkpt>
      <trkpt lat="44.16147" lon="0.56518">
        <ele>150.9</ele>
        <time>2025-08-31T07:26:52.000Z</time>
      </trkpt>
      <trkpt lat="44.16138" lon="0.5651">
        <ele>151.5</ele>
        <time>2025-08-31T07:27:00.000Z</time>
      </trkpt>
      <trkpt lat="44.16131" lon="0.56502">
        <ele>152</ele>
        <time>2025-08-31T07:27:08.000Z</time>
      </trkpt>
      <trkpt lat="44.16123" lon="0.56496">
        <ele>152.6</ele>
        <time>2025-08-31T07:27:16.000Z</time>
      </trkpt>
      <trkpt lat="44.16114" lon="0.5649">
        <ele>153.3</ele>
        <time>2025-08-31T07:27:28.000Z</time>
      </trkpt>
      <trkpt lat="44.16107" lon="0.56483">
        <ele>153.9</ele>
        <time>2025-08-31T07:28:18.000Z</time>
      </trkpt>
      <trkpt lat="44.16099" lon="0.56478">
        <ele>154.5</ele>
        <time>2025-08-31T07:30:18.000Z</time>
      </trkpt>
      <trkpt lat="44.1609" lon="0.56475">
        <ele>155.3</ele>
        <time>2025-08-31T07:30:26.000Z</time>
      </trkpt>
      <trkpt lat="44.16081" lon="0.56473">
        <ele>156.2</ele>
        <time>2025-08-31T07:30:34.000Z</time>
      </trkpt>
      <trkpt lat="44.16072" lon="0.5647">
        <ele>156.8</ele>
        <time>2025-08-31T07:30:42.000Z</time>
      </trkpt>
      <trkpt lat="44.16063" lon="0.56468">
        <ele>157.4</ele>
        <time>2025-08-31T07:30:50.000Z</time>
      </trkpt>
      <trkpt lat="44.16055" lon="0.56465">
        <ele>158</ele>
        <time>2025-08-31T07:30:58.000Z</time>
      </trkpt>
      <trkpt lat="44.16046" lon="0.56464">
        <ele>158.4</ele>
        <time>2025-08-31T07:31:06.000Z</time>
      </trkpt>
      <trkpt lat="44.16036" lon="0.56464">
        <ele>158.7</ele>
        <time>2025-08-31T07:31:15.000Z</time>
      </trkpt>
      <trkpt lat="44.16026" lon="0.56462">
        <ele>159</ele>
        <time>2025-08-31T07:31:24.000Z</time>
      </trkpt>
      <trkpt lat="44.16019" lon="0.56457">
        <ele>159.2</ele>
        <time>2025-08-31T07:31:32.000Z</time>
      </trkpt>
      <trkpt lat="44.1601" lon="0.56451">
        <ele>159.5</ele>
        <time>2025-08-31T07:31:40.000Z</time>
      </trkpt>
      <trkpt lat="44.16002" lon="0.56443">
        <ele>159.9</ele>
        <time>2025-08-31T07:31:50.000Z</time>
      </trkpt>
      <trkpt lat="44.15994" lon="0.56437">
        <ele>160.1</ele>
        <time>2025-08-31T07:32:00.000Z</time>
      </trkpt>
      <trkpt lat="44.15984" lon="0.56434">
        <ele>160.2</ele>
        <time>2025-08-31T07:32:08.000Z</time>
      </trkpt>
      <trkpt lat="44.15976" lon="0.5643">
        <ele>160.5</ele>
        <time>2025-08-31T07:32:16.000Z</time>
      </trkpt>
      <trkpt lat="44.15969" lon="0.56422">
        <ele>160.8</ele>
        <time>2025-08-31T07:32:24.000Z</time>
      </trkpt>
      <trkpt lat="44.1596" lon="0.56415">
        <ele>161</ele>
        <time>2025-08-31T07:32:34.000Z</time>
      </trkpt>
      <trkpt lat="44.15952" lon="0.5641">
        <ele>161.2</ele>
        <time>2025-08-31T07:32:42.000Z</time>
      </trkpt>
      <trkpt lat="44.15942" lon="0.56409">
        <ele>161.2</ele>
        <time>2025-08-31T07:32:50.000Z</time>
      </trkpt>
      <trkpt lat="44.15931" lon="0.56408">
        <ele>160.7</ele>
        <time>2025-08-31T07:33:00.000Z</time>
      </trkpt>
      <trkpt lat="44.15921" lon="0.56406">
        <ele>160.2</ele>
        <time>2025-08-31T07:33:10.000Z</time>
      </trkpt>
      <trkpt lat="44.15911" lon="0.56403">
        <ele>159.8</ele>
        <time>2025-08-31T07:33:18.000Z</time>
      </trkpt>
      <trkpt lat="44.15902" lon="0.56401">
        <ele>159.5</ele>
        <time>2025-08-31T07:33:26.000Z</time>
      </trkpt>
      <trkpt lat="44.15893" lon="0.56401">
        <ele>159.1</ele>
        <time>2025-08-31T07:33:34.000Z</time>
      </trkpt>
      <trkpt lat="44.15883" lon="0.56401">
        <ele>158.9</ele>
        <time>2025-08-31T07:33:42.000Z</time>
      </trkpt>
      <trkpt lat="44.15874" lon="0.56399">
        <ele>158.8</ele>
        <time>2025-08-31T07:33:50.000Z</time>
      </trkpt>
      <trkpt lat="44.15864" lon="0.56401">
        <ele>158.6</ele>
        <time>2025-08-31T07:34:06.000Z</time>
      </trkpt>
      <trkpt lat="44.15855" lon="0.56401">
        <ele>158.3</ele>
        <time>2025-08-31T07:34:12.000Z</time>
      </trkpt>
      <trkpt lat="44.15845" lon="0.56399">
        <ele>158.1</ele>
        <time>2025-08-31T07:34:20.000Z</time>
      </trkpt>
      <trkpt lat="44.15835" lon="0.56396">
        <ele>157.8</ele>
        <time>2025-08-31T07:34:34.000Z</time>
      </trkpt>
      <trkpt lat="44.15824" lon="0.56398">
        <ele>157.4</ele>
        <time>2025-08-31T07:34:44.000Z</time>
      </trkpt>
      <trkpt lat="44.15809" lon="0.56407">
        <ele>157</ele>
        <time>2025-08-31T07:35:04.000Z</time>
      </trkpt>
      <trkpt lat="44.15798" lon="0.56409">
        <ele>156.9</ele>
        <time>2025-08-31T07:35:10.000Z</time>
      </trkpt>
      <trkpt lat="44.15789" lon="0.56407">
        <ele>156.8</ele>
        <time>2025-08-31T07:35:19.000Z</time>
      </trkpt>
      <trkpt lat="44.15781" lon="0.56409">
        <ele>156.8</ele>
        <time>2025-08-31T07:35:29.000Z</time>
      </trkpt>
      <trkpt lat="44.15776" lon="0.56419">
        <ele>157</ele>
        <time>2025-08-31T07:35:37.000Z</time>
      </trkpt>
      <trkpt lat="44.15775" lon="0.56434">
        <ele>156.5</ele>
        <time>2025-08-31T07:35:48.000Z</time>
      </trkpt>
      <trkpt lat="44.15776" lon="0.56448">
        <ele>155.7</ele>
        <time>2025-08-31T07:35:56.000Z</time>
      </trkpt>
      <trkpt lat="44.15776" lon="0.56461">
        <ele>154.3</ele>
        <time>2025-08-31T07:36:06.000Z</time>
      </trkpt>
      <trkpt lat="44.15778" lon="0.56474">
        <ele>152.8</ele>
        <time>2025-08-31T07:36:14.000Z</time>
      </trkpt>
      <trkpt lat="44.15779" lon="0.56487">
        <ele>151.4</ele>
        <time>2025-08-31T07:36:24.000Z</time>
      </trkpt>
      <trkpt lat="44.15776" lon="0.56499">
        <ele>150.2</ele>
        <time>2025-08-31T07:36:32.000Z</time>
      </trkpt>
      <trkpt lat="44.15775" lon="0.56512">
        <ele>148.4</ele>
        <time>2025-08-31T07:36:42.000Z</time>
      </trkpt>
      <trkpt lat="44.15774" lon="0.56524">
        <ele>146.5</ele>
        <time>2025-08-31T07:36:58.000Z</time>
      </trkpt>
      <trkpt lat="44.15774" lon="0.56537">
        <ele>144.7</ele>
        <time>2025-08-31T07:37:06.000Z</time>
      </trkpt>
      <trkpt lat="44.15775" lon="0.5655">
        <ele>142.8</ele>
        <time>2025-08-31T07:37:14.000Z</time>
      </trkpt>
      <trkpt lat="44.15774" lon="0.56563">
        <ele>141.2</ele>
        <time>2025-08-31T07:37:22.000Z</time>
      </trkpt>
      <trkpt lat="44.15774" lon="0.56578">
        <ele>139.6</ele>
        <time>2025-08-31T07:37:32.000Z</time>
      </trkpt>
      <trkpt lat="44.15773" lon="0.56592">
        <ele>138.1</ele>
        <time>2025-08-31T07:37:42.000Z</time>
      </trkpt>
      <trkpt lat="44.15773" lon="0.56607">
        <ele>136.6</ele>
        <time>2025-08-31T07:37:52.000Z</time>
      </trkpt>
      <trkpt lat="44.15772" lon="0.5662">
        <ele>135.3</ele>
        <time>2025-08-31T07:38:00.000Z</time>
      </trkpt>
      <trkpt lat="44.15771" lon="0.56634">
        <ele>134</ele>
        <time>2025-08-31T07:38:08.000Z</time>
      </trkpt>
      <trkpt lat="44.15771" lon="0.56646">
        <ele>132.7</ele>
        <time>2025-08-31T07:38:16.000Z</time>
      </trkpt>
      <trkpt lat="44.1577" lon="0.56659">
        <ele>131.4</ele>
        <time>2025-08-31T07:38:24.000Z</time>
      </trkpt>
      <trkpt lat="44.15769" lon="0.56672">
        <ele>130.5</ele>
        <time>2025-08-31T07:38:52.000Z</time>
      </trkpt>
      <trkpt lat="44.15773" lon="0.56685">
        <ele>130.1</ele>
        <time>2025-08-31T07:39:00.000Z</time>
      </trkpt>
      <trkpt lat="44.15776" lon="0.56697">
        <ele>130</ele>
        <time>2025-08-31T07:39:06.000Z</time>
      </trkpt>
      <trkpt lat="44.15778" lon="0.56711">
        <ele>130</ele>
        <time>2025-08-31T07:39:14.000Z</time>
      </trkpt>
      <trkpt lat="44.15779" lon="0.56724">
        <ele>130</ele>
        <time>2025-08-31T07:39:22.000Z</time>
      </trkpt>
      <trkpt lat="44.15779" lon="0.56738">
        <ele>129.9</ele>
        <time>2025-08-31T07:39:30.000Z</time>
      </trkpt>
      <trkpt lat="44.15778" lon="0.56751">
        <ele>129.9</ele>
        <time>2025-08-31T07:39:38.000Z</time>
      </trkpt>
      <trkpt lat="44.1578" lon="0.56765">
        <ele>129.4</ele>
        <time>2025-08-31T07:39:46.000Z</time>
      </trkpt>
      <trkpt lat="44.15781" lon="0.56778">
        <ele>128.9</ele>
        <time>2025-08-31T07:39:54.000Z</time>
      </trkpt>
      <trkpt lat="44.15782" lon="0.56791">
        <ele>128.9</ele>
        <time>2025-08-31T07:40:04.000Z</time>
      </trkpt>
      <trkpt lat="44.15783" lon="0.56806">
        <ele>129</ele>
        <time>2025-08-31T07:40:14.000Z</time>
      </trkpt>
      <trkpt lat="44.15784" lon="0.56818">
        <ele>128.7</ele>
        <time>2025-08-31T07:40:22.000Z</time>
      </trkpt>
      <trkpt lat="44.15785" lon="0.56831">
        <ele>128.3</ele>
        <time>2025-08-31T07:40:31.000Z</time>
      </trkpt>
      <trkpt lat="44.15787" lon="0.56844">
        <ele>128.2</ele>
        <time>2025-08-31T07:40:39.000Z</time>
      </trkpt>
      <trkpt lat="44.15789" lon="0.56857">
        <ele>128.1</ele>
        <time>2025-08-31T07:40:47.000Z</time>
      </trkpt>
      <trkpt lat="44.15792" lon="0.56871">
        <ele>128</ele>
        <time>2025-08-31T07:40:55.000Z</time>
      </trkpt>
      <trkpt lat="44.15793" lon="0.56883">
        <ele>128</ele>
        <time>2025-08-31T07:41:03.000Z</time>
      </trkpt>
      <trkpt lat="44.15796" lon="0.56895">
        <ele>127.9</ele>
        <time>2025-08-31T07:41:12.000Z</time>
      </trkpt>
      <trkpt lat="44.158" lon="0.56907">
        <ele>127.5</ele>
        <time>2025-08-31T07:41:22.000Z</time>
      </trkpt>
      <trkpt lat="44.15802" lon="0.5692">
        <ele>127.1</ele>
        <time>2025-08-31T07:41:30.000Z</time>
      </trkpt>
      <trkpt lat="44.15799" lon="0.56934">
        <ele>127.2</ele>
        <time>2025-08-31T07:41:39.000Z</time>
      </trkpt>
      <trkpt lat="44.15792" lon="0.56943">
        <ele>127.5</ele>
        <time>2025-08-31T07:41:45.000Z</time>
      </trkpt>
      <trkpt lat="44.15783" lon="0.56947">
        <ele>127.8</ele>
        <time>2025-08-31T07:41:51.000Z</time>
      </trkpt>
      <trkpt lat="44.15774" lon="0.56947">
        <ele>127.6</ele>
        <time>2025-08-31T07:42:37.000Z</time>
      </trkpt>
      <trkpt lat="44.15764" lon="0.56946">
        <ele>126.6</ele>
        <time>2025-08-31T07:42:47.000Z</time>
      </trkpt>
      <trkpt lat="44.15755" lon="0.56944">
        <ele>125.5</ele>
        <time>2025-08-31T07:42:55.000Z</time>
      </trkpt>
      <trkpt lat="44.15746" lon="0.56944">
        <ele>124.2</ele>
        <time>2025-08-31T07:43:03.000Z</time>
      </trkpt>
      <trkpt lat="44.15736" lon="0.56943">
        <ele>122.5</ele>
        <time>2025-08-31T07:43:15.000Z</time>
      </trkpt>
      <trkpt lat="44.15727" lon="0.56945">
        <ele>120.9</ele>
        <time>2025-08-31T07:43:25.000Z</time>
      </trkpt>
      <trkpt lat="44.15718" lon="0.56946">
        <ele>119</ele>
        <time>2025-08-31T07:43:35.000Z</time>
      </trkpt>
      <trkpt lat="44.15709" lon="0.56947">
        <ele>117.1</ele>
        <time>2025-08-31T07:43:51.000Z</time>
      </trkpt>
      <trkpt lat="44.157" lon="0.56946">
        <ele>115.2</ele>
        <time>2025-08-31T07:44:03.000Z</time>
      </trkpt>
      <trkpt lat="44.15691" lon="0.56946">
        <ele>113.6</ele>
        <time>2025-08-31T07:44:11.000Z</time>
      </trkpt>
      <trkpt lat="44.15682" lon="0.56946">
        <ele>112.5</ele>
        <time>2025-08-31T07:44:21.000Z</time>
      </trkpt>
      <trkpt lat="44.15674" lon="0.56953">
        <ele>111.3</ele>
        <time>2025-08-31T07:44:29.000Z</time>
      </trkpt>
      <trkpt lat="44.1567" lon="0.56964">
        <ele>110.1</ele>
        <time>2025-08-31T07:44:35.000Z</time>
      </trkpt>
      <trkpt lat="44.15669" lon="0.56977">
        <ele>109</ele>
        <time>2025-08-31T07:44:43.000Z</time>
      </trkpt>
      <trkpt lat="44.1567" lon="0.56989">
        <ele>108.2</ele>
        <time>2025-08-31T07:44:53.000Z</time>
      </trkpt>
      <trkpt lat="44.1567" lon="0.57003">
        <ele>107.4</ele>
        <time>2025-08-31T07:45:01.000Z</time>
      </trkpt>
      <trkpt lat="44.15667" lon="0.57016">
        <ele>106.6</ele>
        <time>2025-08-31T07:45:09.000Z</time>
      </trkpt>
      <trkpt lat="44.15667" lon="0.57031">
        <ele>105.9</ele>
        <time>2025-08-31T07:45:19.000Z</time>
      </trkpt>
      <trkpt lat="44.15665" lon="0.57043">
        <ele>105.3</ele>
        <time>2025-08-31T07:45:27.000Z</time>
      </trkpt>
      <trkpt lat="44.15661" lon="0.57054">
        <ele>104.5</ele>
        <time>2025-08-31T07:45:36.000Z</time>
      </trkpt>
      <trkpt lat="44.1566" lon="0.57068">
        <ele>103.4</ele>
        <time>2025-08-31T07:45:45.000Z</time>
      </trkpt>
      <trkpt lat="44.1566" lon="0.5708">
        <ele>102.3</ele>
        <time>2025-08-31T07:45:55.000Z</time>
      </trkpt>
      <trkpt lat="44.15654" lon="0.57091">
        <ele>100.9</ele>
        <time>2025-08-31T07:46:03.000Z</time>
      </trkpt>
      <trkpt lat="44.15648" lon="0.57102">
        <ele>99.9</ele>
        <time>2025-08-31T07:46:11.000Z</time>
      </trkpt>
      <trkpt lat="44.15642" lon="0.57114">
        <ele>99.1</ele>
        <time>2025-08-31T07:46:33.000Z</time>
      </trkpt>
      <trkpt lat="44.15638" lon="0.57126">
        <ele>98</ele>
        <time>2025-08-31T07:46:41.000Z</time>
      </trkpt>
      <trkpt lat="44.15633" lon="0.57139">
        <ele>97.3</ele>
        <time>2025-08-31T07:46:51.000Z</time>
      </trkpt>
      <trkpt lat="44.15628" lon="0.57151">
        <ele>97.1</ele>
        <time>2025-08-31T07:46:59.000Z</time>
      </trkpt>
      <trkpt lat="44.15622" lon="0.57163">
        <ele>97.2</ele>
        <time>2025-08-31T07:47:10.000Z</time>
      </trkpt>
      <trkpt lat="44.15619" lon="0.57176">
        <ele>97.9</ele>
        <time>2025-08-31T07:47:18.000Z</time>
      </trkpt>
      <trkpt lat="44.1562" lon="0.57188">
        <ele>98.4</ele>
        <time>2025-08-31T07:47:28.000Z</time>
      </trkpt>
      <trkpt lat="44.15623" lon="0.57201">
        <ele>98.3</ele>
        <time>2025-08-31T07:47:38.000Z</time>
      </trkpt>
      <trkpt lat="44.15627" lon="0.57214">
        <ele>98.1</ele>
        <time>2025-08-31T07:47:48.000Z</time>
      </trkpt>
      <trkpt lat="44.15633" lon="0.57225">
        <ele>97.7</ele>
        <time>2025-08-31T07:47:54.000Z</time>
      </trkpt>
      <trkpt lat="44.15641" lon="0.57233">
        <ele>97.2</ele>
        <time>2025-08-31T07:48:00.000Z</time>
      </trkpt>
      <trkpt lat="44.15647" lon="0.57242">
        <ele>96.7</ele>
        <time>2025-08-31T07:48:08.000Z</time>
      </trkpt>
      <trkpt lat="44.15654" lon="0.5725">
        <ele>95.9</ele>
        <time>2025-08-31T07:48:16.000Z</time>
      </trkpt>
      <trkpt lat="44.15656" lon="0.57263">
        <ele>96.1</ele>
        <time>2025-08-31T07:48:26.000Z</time>
      </trkpt>
      <trkpt lat="44.15655" lon="0.57276">
        <ele>97</ele>
        <time>2025-08-31T07:48:34.000Z</time>
      </trkpt>
      <trkpt lat="44.15652" lon="0.57289">
        <ele>98</ele>
        <time>2025-08-31T07:48:44.000Z</time>
      </trkpt>
      <trkpt lat="44.1565" lon="0.57302">
        <ele>98.9</ele>
        <time>2025-08-31T07:48:52.000Z</time>
      </trkpt>
      <trkpt lat="44.15647" lon="0.57314">
        <ele>99.5</ele>
        <time>2025-08-31T07:49:00.000Z</time>
      </trkpt>
      <trkpt lat="44.15644" lon="0.57327">
        <ele>99.9</ele>
        <time>2025-08-31T07:49:10.000Z</time>
      </trkpt>
      <trkpt lat="44.15644" lon="0.57339">
        <ele>99.9</ele>
        <time>2025-08-31T07:49:20.000Z</time>
      </trkpt>
      <trkpt lat="44.15643" lon="0.57352">
        <ele>100</ele>
        <time>2025-08-31T07:52:57.000Z</time>
      </trkpt>
      <trkpt lat="44.15647" lon="0.57364">
        <ele>98.9</ele>
        <time>2025-08-31T07:53:05.000Z</time>
      </trkpt>
      <trkpt lat="44.15652" lon="0.57374">
        <ele>97.3</ele>
        <time>2025-08-31T07:53:13.000Z</time>
      </trkpt>
      <trkpt lat="44.15658" lon="0.57385">
        <ele>96.3</ele>
        <time>2025-08-31T07:53:21.000Z</time>
      </trkpt>
      <trkpt lat="44.15663" lon="0.57397">
        <ele>95.8</ele>
        <time>2025-08-31T07:53:29.000Z</time>
      </trkpt>
      <trkpt lat="44.15666" lon="0.57409">
        <ele>95.8</ele>
        <time>2025-08-31T07:53:37.000Z</time>
      </trkpt>
      <trkpt lat="44.15672" lon="0.57421">
        <ele>95.1</ele>
        <time>2025-08-31T07:53:45.000Z</time>
      </trkpt>
      <trkpt lat="44.15678" lon="0.57432">
        <ele>94</ele>
        <time>2025-08-31T07:53:53.000Z</time>
      </trkpt>
      <trkpt lat="44.15682" lon="0.57444">
        <ele>93.3</ele>
        <time>2025-08-31T07:54:01.000Z</time>
      </trkpt>
      <trkpt lat="44.15687" lon="0.57455">
        <ele>92.4</ele>
        <time>2025-08-31T07:54:11.000Z</time>
      </trkpt>
      <trkpt lat="44.15691" lon="0.57466">
        <ele>91.6</ele>
        <time>2025-08-31T07:54:21.000Z</time>
      </trkpt>
      <trkpt lat="44.15695" lon="0.57477">
        <ele>91</ele>
        <time>2025-08-31T07:54:31.000Z</time>
      </trkpt>
      <trkpt lat="44.157" lon="0.57488">
        <ele>90.7</ele>
        <time>2025-08-31T07:54:43.000Z</time>
      </trkpt>
      <trkpt lat="44.15706" lon="0.57498">
        <ele>90.2</ele>
        <time>2025-08-31T07:54:53.000Z</time>
      </trkpt>
      <trkpt lat="44.15711" lon="0.57509">
        <ele>89.3</ele>
        <time>2025-08-31T07:55:01.000Z</time>
      </trkpt>
      <trkpt lat="44.15715" lon="0.57521">
        <ele>88.2</ele>
        <time>2025-08-31T07:55:11.000Z</time>
      </trkpt>
      <trkpt lat="44.1572" lon="0.57534">
        <ele>87.4</ele>
        <time>2025-08-31T07:55:21.000Z</time>
      </trkpt>
      <trkpt lat="44.15727" lon="0.57545">
        <ele>87.4</ele>
        <time>2025-08-31T07:55:32.000Z</time>
      </trkpt>
      <trkpt lat="44.15733" lon="0.57557">
        <ele>87.2</ele>
        <time>2025-08-31T07:55:39.000Z</time>
      </trkpt>
      <trkpt lat="44.15739" lon="0.57569">
        <ele>86.3</ele>
        <time>2025-08-31T07:55:47.000Z</time>
      </trkpt>
      <trkpt lat="44.15745" lon="0.57579">
        <ele>85.5</ele>
        <time>2025-08-31T07:55:55.000Z</time>
      </trkpt>
      <trkpt lat="44.1575" lon="0.57591">
        <ele>84.8</ele>
        <time>2025-08-31T07:56:05.000Z</time>
      </trkpt>
      <trkpt lat="44.15755" lon="0.576">
        <ele>84.2</ele>
        <time>2025-08-31T07:56:19.000Z</time>
      </trkpt>
      <trkpt lat="44.15761" lon="0.5761">
        <ele>83.6</ele>
        <time>2025-08-31T07:56:27.000Z</time>
      </trkpt>
      <trkpt lat="44.15767" lon="0.57621">
        <ele>83</ele>
        <time>2025-08-31T07:56:35.000Z</time>
      </trkpt>
      <trkpt lat="44.15772" lon="0.57633">
        <ele>82.4</ele>
        <time>2025-08-31T07:56:45.000Z</time>
      </trkpt>
      <trkpt lat="44.15774" lon="0.57645">
        <ele>82.1</ele>
        <time>2025-08-31T07:56:57.000Z</time>
      </trkpt>
      <trkpt lat="44.15777" lon="0.57657">
        <ele>82</ele>
        <time>2025-08-31T07:57:09.000Z</time>
      </trkpt>
      <trkpt lat="44.15785" lon="0.57662">
        <ele>81.8</ele>
        <time>2025-08-31T07:58:37.000Z</time>
      </trkpt>
      <trkpt lat="44.15793" lon="0.57665">
        <ele>81.5</ele>
        <time>2025-08-31T07:58:49.000Z</time>
      </trkpt>
      <trkpt lat="44.158" lon="0.57671">
        <ele>81.9</ele>
        <time>2025-08-31T07:59:07.000Z</time>
      </trkpt>
      <trkpt lat="44.15799" lon="0.57683">
        <ele>83.9</ele>
        <time>2025-08-31T07:59:19.000Z</time>
      </trkpt>
      <trkpt lat="44.15796" lon="0.57696">
        <ele>85.9</ele>
        <time>2025-08-31T07:59:29.000Z</time>
      </trkpt>
      <trkpt lat="44.1579" lon="0.57705">
        <ele>86.8</ele>
        <time>2025-08-31T07:59:43.000Z</time>
      </trkpt>
      <trkpt lat="44.15787" lon="0.57716">
        <ele>87.9</ele>
        <time>2025-08-31T07:59:57.000Z</time>
      </trkpt>
      <trkpt lat="44.15778" lon="0.57717">
        <ele>87.4</ele>
        <time>2025-08-31T08:00:29.000Z</time>
      </trkpt>
      <trkpt lat="44.15769" lon="0.57716">
        <ele>86.9</ele>
        <time>2025-08-31T08:00:37.000Z</time>
      </trkpt>
      <trkpt lat="44.1576" lon="0.57717">
        <ele>86.7</ele>
        <time>2025-08-31T08:00:47.000Z</time>
      </trkpt>
      <trkpt lat="44.15749" lon="0.57718">
        <ele>86.4</ele>
        <time>2025-08-31T08:01:33.000Z</time>
      </trkpt>
      <trkpt lat="44.15741" lon="0.57715">
        <ele>85.5</ele>
        <time>2025-08-31T08:01:39.000Z</time>
      </trkpt>
      <trkpt lat="44.15733" lon="0.5771">
        <ele>84.6</ele>
        <time>2025-08-31T08:01:46.000Z</time>
      </trkpt>
      <trkpt lat="44.15725" lon="0.57711">
        <ele>84.3</ele>
        <time>2025-08-31T08:01:52.000Z</time>
      </trkpt>
      <trkpt lat="44.15716" lon="0.57718">
        <ele>84.5</ele>
        <time>2025-08-31T08:02:02.000Z</time>
      </trkpt>
      <trkpt lat="44.15706" lon="0.57726">
        <ele>84.8</ele>
        <time>2025-08-31T08:02:12.000Z</time>
      </trkpt>
      <trkpt lat="44.15697" lon="0.57732">
        <ele>84.8</ele>
        <time>2025-08-31T08:02:20.000Z</time>
      </trkpt>
      <trkpt lat="44.15688" lon="0.57737">
        <ele>85</ele>
        <time>2025-08-31T08:02:30.000Z</time>
      </trkpt>
      <trkpt lat="44.15679" lon="0.57742">
        <ele>85.1</ele>
        <time>2025-08-31T08:02:38.000Z</time>
      </trkpt>
      <trkpt lat="44.15671" lon="0.57749">
        <ele>85.1</ele>
        <time>2025-08-31T08:02:46.000Z</time>
      </trkpt>
      <trkpt lat="44.15663" lon="0.57756">
        <ele>85.6</ele>
        <time>2025-08-31T08:02:54.000Z</time>
      </trkpt>
      <trkpt lat="44.15655" lon="0.57762">
        <ele>85.9</ele>
        <time>2025-08-31T08:03:02.000Z</time>
      </trkpt>
      <trkpt lat="44.15645" lon="0.57765">
        <ele>85.8</ele>
        <time>2025-08-31T08:03:12.000Z</time>
      </trkpt>
      <trkpt lat="44.15636" lon="0.5777">
        <ele>85.6</ele>
        <time>2025-08-31T08:03:20.000Z</time>
      </trkpt>
      <trkpt lat="44.15628" lon="0.57775">
        <ele>85.5</ele>
        <time>2025-08-31T08:03:28.000Z</time>
      </trkpt>
      <trkpt lat="44.15619" lon="0.57782">
        <ele>85.7</ele>
        <time>2025-08-31T08:03:38.000Z</time>
      </trkpt>
      <trkpt lat="44.15612" lon="0.57791">
        <ele>86.4</ele>
        <time>2025-08-31T08:03:46.000Z</time>
      </trkpt>
      <trkpt lat="44.15603" lon="0.57797">
        <ele>86.7</ele>
        <time>2025-08-31T08:03:55.000Z</time>
      </trkpt>
      <trkpt lat="44.15594" lon="0.57801">
        <ele>86.4</ele>
        <time>2025-08-31T08:04:04.000Z</time>
      </trkpt>
      <trkpt lat="44.15586" lon="0.57808">
        <ele>86.5</ele>
        <time>2025-08-31T08:04:15.000Z</time>
      </trkpt>
      <trkpt lat="44.15578" lon="0.57815">
        <ele>86.9</ele>
        <time>2025-08-31T08:04:22.000Z</time>
      </trkpt>
      <trkpt lat="44.1557" lon="0.5782">
        <ele>87.3</ele>
        <time>2025-08-31T08:04:32.000Z</time>
      </trkpt>
      <trkpt lat="44.15561" lon="0.57817">
        <ele>86.9</ele>
        <time>2025-08-31T08:04:52.000Z</time>
      </trkpt>
      <trkpt lat="44.15555" lon="0.57809">
        <ele>86.2</ele>
        <time>2025-08-31T08:05:04.000Z</time>
      </trkpt>
      <trkpt lat="44.15545" lon="0.57806">
        <ele>86</ele>
        <time>2025-08-31T08:06:10.000Z</time>
      </trkpt>
      <trkpt lat="44.15536" lon="0.57805">
        <ele>86</ele>
        <time>2025-08-31T08:06:15.000Z</time>
      </trkpt>
      <trkpt lat="44.15526" lon="0.57805">
        <ele>85.9</ele>
        <time>2025-08-31T08:06:23.000Z</time>
      </trkpt>
      <trkpt lat="44.15517" lon="0.57808">
        <ele>85.7</ele>
        <time>2025-08-31T08:06:31.000Z</time>
      </trkpt>
      <trkpt lat="44.15507" lon="0.57812">
        <ele>85.6</ele>
        <time>2025-08-31T08:06:39.000Z</time>
      </trkpt>
      <trkpt lat="44.15497" lon="0.57816">
        <ele>85.8</ele>
        <time>2025-08-31T08:06:47.000Z</time>
      </trkpt>
      <trkpt lat="44.15487" lon="0.57818">
        <ele>86.1</ele>
        <time>2025-08-31T08:06:55.000Z</time>
      </trkpt>
      <trkpt lat="44.15478" lon="0.57821">
        <ele>86.5</ele>
        <time>2025-08-31T08:07:03.000Z</time>
      </trkpt>
      <trkpt lat="44.15469" lon="0.57824">
        <ele>86.6</ele>
        <time>2025-08-31T08:07:11.000Z</time>
      </trkpt>
      <trkpt lat="44.15462" lon="0.57831">
        <ele>86.6</ele>
        <time>2025-08-31T08:07:19.000Z</time>
      </trkpt>
      <trkpt lat="44.15452" lon="0.57837">
        <ele>86.5</ele>
        <time>2025-08-31T08:07:28.000Z</time>
      </trkpt>
      <trkpt lat="44.15443" lon="0.57842">
        <ele>86.7</ele>
        <time>2025-08-31T08:07:37.000Z</time>
      </trkpt>
      <trkpt lat="44.15435" lon="0.57849">
        <ele>87.2</ele>
        <time>2025-08-31T08:07:47.000Z</time>
      </trkpt>
      <trkpt lat="44.15427" lon="0.57858">
        <ele>87.4</ele>
        <time>2025-08-31T08:07:57.000Z</time>
      </trkpt>
      <trkpt lat="44.15418" lon="0.57865">
        <ele>87.2</ele>
        <time>2025-08-31T08:08:07.000Z</time>
      </trkpt>
      <trkpt lat="44.15408" lon="0.5787">
        <ele>87.5</ele>
        <time>2025-08-31T08:08:17.000Z</time>
      </trkpt>
      <trkpt lat="44.15399" lon="0.57876">
        <ele>87.8</ele>
        <time>2025-08-31T08:09:11.000Z</time>
      </trkpt>
      <trkpt lat="44.1539" lon="0.5788">
        <ele>88</ele>
        <time>2025-08-31T08:09:21.000Z</time>
      </trkpt>
      <trkpt lat="44.15381" lon="0.57885">
        <ele>88.1</ele>
        <time>2025-08-31T08:09:33.000Z</time>
      </trkpt>
      <trkpt lat="44.15371" lon="0.57889">
        <ele>88</ele>
        <time>2025-08-31T08:09:58.000Z</time>
      </trkpt>
      <trkpt lat="44.15361" lon="0.5789">
        <ele>88</ele>
        <time>2025-08-31T08:10:05.000Z</time>
      </trkpt>
      <trkpt lat="44.15352" lon="0.57891">
        <ele>88.4</ele>
        <time>2025-08-31T08:10:22.000Z</time>
      </trkpt>
      <trkpt lat="44.15343" lon="0.57896">
        <ele>88.7</ele>
        <time>2025-08-31T08:10:32.000Z</time>
      </trkpt>
      <trkpt lat="44.15335" lon="0.579">
        <ele>89</ele>
        <time>2025-08-31T08:10:41.000Z</time>
      </trkpt>
      <trkpt lat="44.15326" lon="0.57905">
        <ele>89.3</ele>
        <time>2025-08-31T08:10:49.000Z</time>
      </trkpt>
      <trkpt lat="44.15319" lon="0.57912">
        <ele>89.3</ele>
        <time>2025-08-31T08:10:59.000Z</time>
      </trkpt>
      <trkpt lat="44.15311" lon="0.57918">
        <ele>89.1</ele>
        <time>2025-08-31T08:11:24.000Z</time>
      </trkpt>
      <trkpt lat="44.15301" lon="0.57922">
        <ele>89.3</ele>
        <time>2025-08-31T08:11:32.000Z</time>
      </trkpt>
      <trkpt lat="44.15292" lon="0.57923">
        <ele>89.6</ele>
        <time>2025-08-31T08:11:42.000Z</time>
      </trkpt>
      <trkpt lat="44.15283" lon="0.57921">
        <ele>89.8</ele>
        <time>2025-08-31T08:12:06.000Z</time>
      </trkpt>
      <trkpt lat="44.15275" lon="0.57925">
        <ele>90.1</ele>
        <time>2025-08-31T08:12:13.000Z</time>
      </trkpt>
      <trkpt lat="44.15267" lon="0.57932">
        <ele>90.4</ele>
        <time>2025-08-31T08:12:18.000Z</time>
      </trkpt>
      <trkpt lat="44.15258" lon="0.57938">
        <ele>90.7</ele>
        <time>2025-08-31T08:12:28.000Z</time>
      </trkpt>
      <trkpt lat="44.15248" lon="0.57941">
        <ele>91</ele>
        <time>2025-08-31T08:12:38.000Z</time>
      </trkpt>
      <trkpt lat="44.15239" lon="0.57941">
        <ele>90.7</ele>
        <time>2025-08-31T08:12:48.000Z</time>
      </trkpt>
      <trkpt lat="44.1523" lon="0.57943">
        <ele>90.4</ele>
        <time>2025-08-31T08:13:19.000Z</time>
      </trkpt>
      <trkpt lat="44.15222" lon="0.57945">
        <ele>90.1</ele>
        <time>2025-08-31T08:13:28.000Z</time>
      </trkpt>
      <trkpt lat="44.15213" lon="0.57948">
        <ele>90.5</ele>
        <time>2025-08-31T08:14:00.000Z</time>
      </trkpt>
      <trkpt lat="44.1521" lon="0.57958">
        <ele>91.2</ele>
        <time>2025-08-31T08:16:23.000Z</time>
      </trkpt>
      <trkpt lat="44.1521" lon="0.5797">
        <ele>91.9</ele>
        <time>2025-08-31T08:16:31.000Z</time>
      </trkpt>
      <trkpt lat="44.15213" lon="0.57983">
        <ele>92.5</ele>
        <time>2025-08-31T08:16:39.000Z</time>
      </trkpt>
      <trkpt lat="44.15217" lon="0.57996">
        <ele>93</ele>
        <time>2025-08-31T08:16:47.000Z</time>
      </trkpt>
      <trkpt lat="44.1522" lon="0.58008">
        <ele>94.2</ele>
        <time>2025-08-31T08:16:55.000Z</time>
      </trkpt>
      <trkpt lat="44.15226" lon="0.58017">
        <ele>95.4</ele>
        <time>2025-08-31T08:17:04.000Z</time>
      </trkpt>
      <trkpt lat="44.1523" lon="0.58027">
        <ele>96.6</ele>
        <time>2025-08-31T08:17:19.000Z</time>
      </trkpt>
      <trkpt lat="44.15244" lon="0.58029">
        <ele>96.3</ele>
        <time>2025-08-31T08:17:26.000Z</time>
      </trkpt>
      <trkpt lat="44.15253" lon="0.58034">
        <ele>96.2</ele>
        <time>2025-08-31T08:17:34.000Z</time>
      </trkpt>
      <trkpt lat="44.15261" lon="0.5804">
        <ele>96.1</ele>
        <time>2025-08-31T08:17:42.000Z</time>
      </trkpt>
      <trkpt lat="44.15266" lon="0.5805">
        <ele>96.5</ele>
        <time>2025-08-31T08:17:49.000Z</time>
      </trkpt>
      <trkpt lat="44.15269" lon="0.58063">
        <ele>97.3</ele>
        <time>2025-08-31T08:18:00.000Z</time>
      </trkpt>
      <trkpt lat="44.15272" lon="0.58074">
        <ele>98.2</ele>
        <time>2025-08-31T08:18:12.000Z</time>
      </trkpt>
      <trkpt lat="44.15277" lon="0.5808">
        <ele>98.7</ele>
        <time>2025-08-31T08:18:23.000Z</time>
      </trkpt>
      <trkpt lat="44.15275" lon="0.58074">
        <ele>98.1</ele>
        <time>2025-08-31T08:19:22.000Z</time>
      </trkpt>
      <trkpt lat="44.15283" lon="0.58077">
        <ele>98.8</ele>
        <time>2025-08-31T08:19:36.000Z</time>
      </trkpt>
      <trkpt lat="44.15293" lon="0.5808">
        <ele>100.2</ele>
        <time>2025-08-31T08:19:47.000Z</time>
      </trkpt>
      <trkpt lat="44.15301" lon="0.58085">
        <ele>101.7</ele>
        <time>2025-08-31T08:19:54.000Z</time>
      </trkpt>
      <trkpt lat="44.1531" lon="0.58088">
        <ele>103.4</ele>
        <time>2025-08-31T08:20:02.000Z</time>
      </trkpt>
      <trkpt lat="44.15319" lon="0.58088">
        <ele>104.7</ele>
        <time>2025-08-31T08:20:10.000Z</time>
      </trkpt>
      <trkpt lat="44.15328" lon="0.58088">
        <ele>106.2</ele>
        <time>2025-08-31T08:20:18.000Z</time>
      </trkpt>
      <trkpt lat="44.15338" lon="0.58089">
        <ele>107.4</ele>
        <time>2025-08-31T08:20:27.000Z</time>
      </trkpt>
      <trkpt lat="44.15349" lon="0.58089">
        <ele>108.1</ele>
        <time>2025-08-31T08:20:36.000Z</time>
      </trkpt>
      <trkpt lat="44.15358" lon="0.58093">
        <ele>109.5</ele>
        <time>2025-08-31T08:20:48.000Z</time>
      </trkpt>
      <trkpt lat="44.15365" lon="0.58101">
        <ele>111.2</ele>
        <time>2025-08-31T08:21:02.000Z</time>
      </trkpt>
      <trkpt lat="44.15371" lon="0.58112">
        <ele>113.2</ele>
        <time>2025-08-31T08:21:18.000Z</time>
      </trkpt>
      <trkpt lat="44.15377" lon="0.58121">
        <ele>114.9</ele>
        <time>2025-08-31T08:21:30.000Z</time>
      </trkpt>
      <trkpt lat="44.15385" lon="0.58127">
        <ele>115.9</ele>
        <time>2025-08-31T08:21:42.000Z</time>
      </trkpt>
      <trkpt lat="44.15394" lon="0.58132">
        <ele>116.8</ele>
        <time>2025-08-31T08:21:54.000Z</time>
      </trkpt>
      <trkpt lat="44.15403" lon="0.58138">
        <ele>118.3</ele>
        <time>2025-08-31T08:22:04.000Z</time>
      </trkpt>
      <trkpt lat="44.15412" lon="0.58142">
        <ele>119.4</ele>
        <time>2025-08-31T08:22:16.000Z</time>
      </trkpt>
      <trkpt lat="44.15421" lon="0.58146">
        <ele>120.5</ele>
        <time>2025-08-31T08:22:26.000Z</time>
      </trkpt>
      <trkpt lat="44.1543" lon="0.58151">
        <ele>122</ele>
        <time>2025-08-31T08:22:38.000Z</time>
      </trkpt>
      <trkpt lat="44.15438" lon="0.58155">
        <ele>123.6</ele>
        <time>2025-08-31T08:22:57.000Z</time>
      </trkpt>
      <trkpt lat="44.15446" lon="0.58159">
        <ele>125</ele>
        <time>2025-08-31T08:23:05.000Z</time>
      </trkpt>
      <trkpt lat="44.15447" lon="0.5817">
        <ele>127.3</ele>
        <time>2025-08-31T08:23:18.000Z</time>
      </trkpt>
      <trkpt lat="44.15446" lon="0.58181">
        <ele>128.5</ele>
        <time>2025-08-31T08:28:06.000Z</time>
      </trkpt>
      <trkpt lat="44.15439" lon="0.58188">
        <ele>128.9</ele>
        <time>2025-08-31T08:28:14.000Z</time>
      </trkpt>
      <trkpt lat="44.1543" lon="0.58196">
        <ele>129.2</ele>
        <time>2025-08-31T08:28:24.000Z</time>
      </trkpt>
      <trkpt lat="44.15424" lon="0.58206">
        <ele>129.8</ele>
        <time>2025-08-31T08:28:32.000Z</time>
      </trkpt>
      <trkpt lat="44.15417" lon="0.58216">
        <ele>130.4</ele>
        <time>2025-08-31T08:28:42.000Z</time>
      </trkpt>
      <trkpt lat="44.15409" lon="0.58225">
        <ele>131.4</ele>
        <time>2025-08-31T08:28:52.000Z</time>
      </trkpt>
      <trkpt lat="44.15402" lon="0.58234">
        <ele>132.4</ele>
        <time>2025-08-31T08:29:00.000Z</time>
      </trkpt>
      <trkpt lat="44.15396" lon="0.58243">
        <ele>133.5</ele>
        <time>2025-08-31T08:29:10.000Z</time>
      </trkpt>
      <trkpt lat="44.15391" lon="0.58255">
        <ele>134.6</ele>
        <time>2025-08-31T08:29:20.000Z</time>
      </trkpt>
      <trkpt lat="44.15385" lon="0.58267">
        <ele>135.6</ele>
        <time>2025-08-31T08:29:28.000Z</time>
      </trkpt>
      <trkpt lat="44.15379" lon="0.58278">
        <ele>136.3</ele>
        <time>2025-08-31T08:29:38.000Z</time>
      </trkpt>
      <trkpt lat="44.15372" lon="0.58289">
        <ele>136.4</ele>
        <time>2025-08-31T08:29:47.000Z</time>
      </trkpt>
      <trkpt lat="44.15365" lon="0.583">
        <ele>136.8</ele>
        <time>2025-08-31T08:29:58.000Z</time>
      </trkpt>
      <trkpt lat="44.15359" lon="0.5831">
        <ele>137.1</ele>
        <time>2025-08-31T08:30:05.000Z</time>
      </trkpt>
      <trkpt lat="44.15352" lon="0.58318">
        <ele>136.9</ele>
        <time>2025-08-31T08:30:15.000Z</time>
      </trkpt>
      <trkpt lat="44.15345" lon="0.58327">
        <ele>136.7</ele>
        <time>2025-08-31T08:30:25.000Z</time>
      </trkpt>
      <trkpt lat="44.1534" lon="0.58337">
        <ele>137</ele>
        <time>2025-08-31T08:30:33.000Z</time>
      </trkpt>
      <trkpt lat="44.15333" lon="0.58345">
        <ele>137.1</ele>
        <time>2025-08-31T08:30:41.000Z</time>
      </trkpt>
      <trkpt lat="44.15325" lon="0.58352">
        <ele>136.2</ele>
        <time>2025-08-31T08:30:49.000Z</time>
      </trkpt>
      <trkpt lat="44.15318" lon="0.58359">
        <ele>135.5</ele>
        <time>2025-08-31T08:30:59.000Z</time>
      </trkpt>
      <trkpt lat="44.15317" lon="0.58373">
        <ele>136.3</ele>
        <time>2025-08-31T08:31:09.000Z</time>
      </trkpt>
      <trkpt lat="44.15309" lon="0.58385">
        <ele>136.2</ele>
        <time>2025-08-31T08:31:17.000Z</time>
      </trkpt>
      <trkpt lat="44.15304" lon="0.58397">
        <ele>136.8</ele>
        <time>2025-08-31T08:31:25.000Z</time>
      </trkpt>
      <trkpt lat="44.15299" lon="0.58407">
        <ele>137.4</ele>
        <time>2025-08-31T08:31:33.000Z</time>
      </trkpt>
      <trkpt lat="44.15294" lon="0.58418">
        <ele>138.2</ele>
        <time>2025-08-31T08:31:41.000Z</time>
      </trkpt>
      <trkpt lat="44.15289" lon="0.5843">
        <ele>138.1</ele>
        <time>2025-08-31T08:31:49.000Z</time>
      </trkpt>
      <trkpt lat="44.15285" lon="0.58441">
        <ele>138.2</ele>
        <time>2025-08-31T08:31:57.000Z</time>
      </trkpt>
      <trkpt lat="44.15281" lon="0.58454">
        <ele>138.4</ele>
        <time>2025-08-31T08:32:05.000Z</time>
      </trkpt>
      <trkpt lat="44.15277" lon="0.58467">
        <ele>138.8</ele>
        <time>2025-08-31T08:32:15.000Z</time>
      </trkpt>
      <trkpt lat="44.15272" lon="0.58481">
        <ele>138.8</ele>
        <time>2025-08-31T08:32:25.000Z</time>
      </trkpt>
      <trkpt lat="44.15267" lon="0.58491">
        <ele>138.6</ele>
        <time>2025-08-31T08:32:32.000Z</time>
      </trkpt>
      <trkpt lat="44.15261" lon="0.585">
        <ele>138.6</ele>
        <time>2025-08-31T08:32:38.000Z</time>
      </trkpt>
      <trkpt lat="44.15251" lon="0.58507">
        <ele>138.9</ele>
        <time>2025-08-31T08:32:47.000Z</time>
      </trkpt>
      <trkpt lat="44.15242" lon="0.58515">
        <ele>139</ele>
        <time>2025-08-31T08:32:56.000Z</time>
      </trkpt>
      <trkpt lat="44.15234" lon="0.58519">
        <ele>139</ele>
        <time>2025-08-31T08:33:04.000Z</time>
      </trkpt>
      <trkpt lat="44.15226" lon="0.58525">
        <ele>139</ele>
        <time>2025-08-31T08:33:12.000Z</time>
      </trkpt>
      <trkpt lat="44.15217" lon="0.5853">
        <ele>139</ele>
        <time>2025-08-31T08:33:20.000Z</time>
      </trkpt>
      <trkpt lat="44.15208" lon="0.58537">
        <ele>139</ele>
        <time>2025-08-31T08:33:28.000Z</time>
      </trkpt>
      <trkpt lat="44.152" lon="0.58544">
        <ele>139</ele>
        <time>2025-08-31T08:33:36.000Z</time>
      </trkpt>
      <trkpt lat="44.15191" lon="0.58549">
        <ele>139.1</ele>
        <time>2025-08-31T08:33:44.000Z</time>
      </trkpt>
      <trkpt lat="44.15181" lon="0.58554">
        <ele>139.5</ele>
        <time>2025-08-31T08:33:54.000Z</time>
      </trkpt>
      <trkpt lat="44.15171" lon="0.58558">
        <ele>139.8</ele>
        <time>2025-08-31T08:34:02.000Z</time>
      </trkpt>
      <trkpt lat="44.15162" lon="0.58566">
        <ele>140.2</ele>
        <time>2025-08-31T08:34:12.000Z</time>
      </trkpt>
      <trkpt lat="44.15154" lon="0.58575">
        <ele>140.5</ele>
        <time>2025-08-31T08:34:20.000Z</time>
      </trkpt>
      <trkpt lat="44.15146" lon="0.58582">
        <ele>140.7</ele>
        <time>2025-08-31T08:34:28.000Z</time>
      </trkpt>
      <trkpt lat="44.15138" lon="0.5859">
        <ele>140.7</ele>
        <time>2025-08-31T08:34:36.000Z</time>
      </trkpt>
      <trkpt lat="44.15133" lon="0.58603">
        <ele>140.2</ele>
        <time>2025-08-31T08:34:44.000Z</time>
      </trkpt>
      <trkpt lat="44.15127" lon="0.58615">
        <ele>139.9</ele>
        <time>2025-08-31T08:34:52.000Z</time>
      </trkpt>
      <trkpt lat="44.15123" lon="0.58626">
        <ele>139.5</ele>
        <time>2025-08-31T08:35:00.000Z</time>
      </trkpt>
      <trkpt lat="44.15119" lon="0.58639">
        <ele>139</ele>
        <time>2025-08-31T08:35:08.000Z</time>
      </trkpt>
      <trkpt lat="44.15115" lon="0.58651">
        <ele>138.6</ele>
        <time>2025-08-31T08:35:16.000Z</time>
      </trkpt>
      <trkpt lat="44.15112" lon="0.58663">
        <ele>138.1</ele>
        <time>2025-08-31T08:35:22.000Z</time>
      </trkpt>
      <trkpt lat="44.15109" lon="0.58676">
        <ele>137.7</ele>
        <time>2025-08-31T08:35:30.000Z</time>
      </trkpt>
      <trkpt lat="44.15106" lon="0.5869">
        <ele>137.3</ele>
        <time>2025-08-31T08:35:38.000Z</time>
      </trkpt>
      <trkpt lat="44.15105" lon="0.58704">
        <ele>136.8</ele>
        <time>2025-08-31T08:35:46.000Z</time>
      </trkpt>
      <trkpt lat="44.15104" lon="0.58718">
        <ele>136.2</ele>
        <time>2025-08-31T08:35:54.000Z</time>
      </trkpt>
      <trkpt lat="44.15103" lon="0.58731">
        <ele>135.7</ele>
        <time>2025-08-31T08:36:02.000Z</time>
      </trkpt>
      <trkpt lat="44.15101" lon="0.58744">
        <ele>135.2</ele>
        <time>2025-08-31T08:36:10.000Z</time>
      </trkpt>
      <trkpt lat="44.15099" lon="0.58758">
        <ele>134.9</ele>
        <time>2025-08-31T08:36:18.000Z</time>
      </trkpt>
      <trkpt lat="44.15099" lon="0.58773">
        <ele>134.6</ele>
        <time>2025-08-31T08:36:26.000Z</time>
      </trkpt>
      <trkpt lat="44.15099" lon="0.58788">
        <ele>134.6</ele>
        <time>2025-08-31T08:36:34.000Z</time>
      </trkpt>
      <trkpt lat="44.15098" lon="0.58802">
        <ele>134.5</ele>
        <time>2025-08-31T08:36:42.000Z</time>
      </trkpt>
      <trkpt lat="44.15095" lon="0.58816">
        <ele>134.3</ele>
        <time>2025-08-31T08:36:50.000Z</time>
      </trkpt>
      <trkpt lat="44.15094" lon="0.5883">
        <ele>134</ele>
        <time>2025-08-31T08:36:59.000Z</time>
      </trkpt>
      <trkpt lat="44.15093" lon="0.58844">
        <ele>134.4</ele>
        <time>2025-08-31T08:37:06.000Z</time>
      </trkpt>
      <trkpt lat="44.15092" lon="0.58858">
        <ele>134.9</ele>
        <time>2025-08-31T08:37:14.000Z</time>
      </trkpt>
      <trkpt lat="44.15089" lon="0.58871">
        <ele>134.9</ele>
        <time>2025-08-31T08:37:22.000Z</time>
      </trkpt>
      <trkpt lat="44.15085" lon="0.58884">
        <ele>135</ele>
        <time>2025-08-31T08:37:30.000Z</time>
      </trkpt>
      <trkpt lat="44.15081" lon="0.58896">
        <ele>134.9</ele>
        <time>2025-08-31T08:37:38.000Z</time>
      </trkpt>
      <trkpt lat="44.15076" lon="0.58908">
        <ele>134.7</ele>
        <time>2025-08-31T08:37:46.000Z</time>
      </trkpt>
      <trkpt lat="44.15069" lon="0.58918">
        <ele>134.5</ele>
        <time>2025-08-31T08:37:54.000Z</time>
      </trkpt>
      <trkpt lat="44.15064" lon="0.5893">
        <ele>134.8</ele>
        <time>2025-08-31T08:38:01.000Z</time>
      </trkpt>
      <trkpt lat="44.15057" lon="0.58941">
        <ele>134.9</ele>
        <time>2025-08-31T08:38:09.000Z</time>
      </trkpt>
      <trkpt lat="44.15053" lon="0.58955">
        <ele>135.1</ele>
        <time>2025-08-31T08:38:19.000Z</time>
      </trkpt>
      <trkpt lat="44.15048" lon="0.58969">
        <ele>135</ele>
        <time>2025-08-31T08:38:27.000Z</time>
      </trkpt>
      <trkpt lat="44.15043" lon="0.58982">
        <ele>134.6</ele>
        <time>2025-08-31T08:38:36.000Z</time>
      </trkpt>
      <trkpt lat="44.15038" lon="0.58992">
        <ele>134.3</ele>
        <time>2025-08-31T08:38:44.000Z</time>
      </trkpt>
      <trkpt lat="44.15033" lon="0.59003">
        <ele>134.3</ele>
        <time>2025-08-31T08:38:52.000Z</time>
      </trkpt>
      <trkpt lat="44.15029" lon="0.59016">
        <ele>134.6</ele>
        <time>2025-08-31T08:39:00.000Z</time>
      </trkpt>
      <trkpt lat="44.15025" lon="0.59028">
        <ele>134.7</ele>
        <time>2025-08-31T08:39:07.000Z</time>
      </trkpt>
      <trkpt lat="44.15024" lon="0.59041">
        <ele>134.5</ele>
        <time>2025-08-31T08:40:04.000Z</time>
      </trkpt>
      <trkpt lat="44.15018" lon="0.59052">
        <ele>134</ele>
        <time>2025-08-31T08:40:12.000Z</time>
      </trkpt>
      <trkpt lat="44.15013" lon="0.59064">
        <ele>133.9</ele>
        <time>2025-08-31T08:40:20.000Z</time>
      </trkpt>
      <trkpt lat="44.15009" lon="0.59076">
        <ele>134.2</ele>
        <time>2025-08-31T08:40:28.000Z</time>
      </trkpt>
      <trkpt lat="44.15005" lon="0.5909">
        <ele>134.7</ele>
        <time>2025-08-31T08:40:36.000Z</time>
      </trkpt>
      <trkpt lat="44.15" lon="0.59101">
        <ele>135.2</ele>
        <time>2025-08-31T08:40:45.000Z</time>
      </trkpt>
      <trkpt lat="44.14993" lon="0.59111">
        <ele>135.5</ele>
        <time>2025-08-31T08:40:52.000Z</time>
      </trkpt>
      <trkpt lat="44.14987" lon="0.59122">
        <ele>135.6</ele>
        <time>2025-08-31T08:41:00.000Z</time>
      </trkpt>
      <trkpt lat="44.14981" lon="0.59132">
        <ele>135.9</ele>
        <time>2025-08-31T08:41:10.000Z</time>
      </trkpt>
      <trkpt lat="44.14977" lon="0.59143">
        <ele>136.4</ele>
        <time>2025-08-31T08:41:19.000Z</time>
      </trkpt>
      <trkpt lat="44.14972" lon="0.59155">
        <ele>137.2</ele>
        <time>2025-08-31T08:41:27.000Z</time>
      </trkpt>
      <trkpt lat="44.14967" lon="0.59166">
        <ele>138.2</ele>
        <time>2025-08-31T08:41:35.000Z</time>
      </trkpt>
      <trkpt lat="44.14961" lon="0.59176">
        <ele>139</ele>
        <time>2025-08-31T08:41:43.000Z</time>
      </trkpt>
      <trkpt lat="44.14955" lon="0.59186">
        <ele>139.6</ele>
        <time>2025-08-31T08:41:52.000Z</time>
      </trkpt>
      <trkpt lat="44.14948" lon="0.59196">
        <ele>140.1</ele>
        <time>2025-08-31T08:42:00.000Z</time>
      </trkpt>
      <trkpt lat="44.14941" lon="0.59206">
        <ele>140.9</ele>
        <time>2025-08-31T08:42:08.000Z</time>
      </trkpt>
      <trkpt lat="44.14935" lon="0.59214">
        <ele>141.8</ele>
        <time>2025-08-31T08:42:15.000Z</time>
      </trkpt>
      <trkpt lat="44.1493" lon="0.59226">
        <ele>142.8</ele>
        <time>2025-08-31T08:42:23.000Z</time>
      </trkpt>
      <trkpt lat="44.14924" lon="0.59236">
        <ele>143.5</ele>
        <time>2025-08-31T08:42:31.000Z</time>
      </trkpt>
      <trkpt lat="44.14919" lon="0.59248">
        <ele>144</ele>
        <time>2025-08-31T08:42:39.000Z</time>
      </trkpt>
      <trkpt lat="44.14913" lon="0.59259">
        <ele>144.2</ele>
        <time>2025-08-31T08:42:49.000Z</time>
      </trkpt>
      <trkpt lat="44.14905" lon="0.59268">
        <ele>144.2</ele>
        <time>2025-08-31T08:45:12.000Z</time>
      </trkpt>
      <trkpt lat="44.14899" lon="0.59279">
        <ele>144.4</ele>
        <time>2025-08-31T08:45:22.000Z</time>
      </trkpt>
      <trkpt lat="44.14892" lon="0.59292">
        <ele>144.6</ele>
        <time>2025-08-31T08:45:31.000Z</time>
      </trkpt>
      <trkpt lat="44.14886" lon="0.59303">
        <ele>144.8</ele>
        <time>2025-08-31T08:45:39.000Z</time>
      </trkpt>
      <trkpt lat="44.14881" lon="0.59315">
        <ele>144.9</ele>
        <time>2025-08-31T08:45:47.000Z</time>
      </trkpt>
      <trkpt lat="44.14877" lon="0.59328">
        <ele>144.7</ele>
        <time>2025-08-31T08:45:55.000Z</time>
      </trkpt>
      <trkpt lat="44.14874" lon="0.5934">
        <ele>143.9</ele>
        <time>2025-08-31T08:46:03.000Z</time>
      </trkpt>
      <trkpt lat="44.1487" lon="0.59353">
        <ele>142.8</ele>
        <time>2025-08-31T08:46:11.000Z</time>
      </trkpt>
      <trkpt lat="44.14865" lon="0.59366">
        <ele>141.3</ele>
        <time>2025-08-31T08:46:22.000Z</time>
      </trkpt>
      <trkpt lat="44.1486" lon="0.59377">
        <ele>139.7</ele>
        <time>2025-08-31T08:46:33.000Z</time>
      </trkpt>
      <trkpt lat="44.14855" lon="0.59389">
        <ele>138.2</ele>
        <time>2025-08-31T08:46:44.000Z</time>
      </trkpt>
      <trkpt lat="44.14854" lon="0.59401">
        <ele>137.1</ele>
        <time>2025-08-31T08:46:50.000Z</time>
      </trkpt>
      <trkpt lat="44.14853" lon="0.59415">
        <ele>136</ele>
        <time>2025-08-31T08:46:58.000Z</time>
      </trkpt>
      <trkpt lat="44.14851" lon="0.59427">
        <ele>134.8</ele>
        <time>2025-08-31T08:47:08.000Z</time>
      </trkpt>
      <trkpt lat="44.14848" lon="0.59439">
        <ele>133.5</ele>
        <time>2025-08-31T08:47:16.000Z</time>
      </trkpt>
      <trkpt lat="44.14847" lon="0.59451">
        <ele>132.7</ele>
        <time>2025-08-31T08:47:24.000Z</time>
      </trkpt>
      <trkpt lat="44.14846" lon="0.59464">
        <ele>131.7</ele>
        <time>2025-08-31T08:47:30.000Z</time>
      </trkpt>
      <trkpt lat="44.14843" lon="0.59476">
        <ele>130.6</ele>
        <time>2025-08-31T08:47:36.000Z</time>
      </trkpt>
      <trkpt lat="44.14842" lon="0.59489">
        <ele>129.9</ele>
        <time>2025-08-31T08:47:44.000Z</time>
      </trkpt>
      <trkpt lat="44.14842" lon="0.59503">
        <ele>129.1</ele>
        <time>2025-08-31T08:47:58.000Z</time>
      </trkpt>
      <trkpt lat="44.14842" lon="0.59518">
        <ele>127.1</ele>
        <time>2025-08-31T08:48:06.000Z</time>
      </trkpt>
      <trkpt lat="44.14842" lon="0.59531">
        <ele>125.6</ele>
        <time>2025-08-31T08:48:14.000Z</time>
      </trkpt>
      <trkpt lat="44.14838" lon="0.59542">
        <ele>124.4</ele>
        <time>2025-08-31T08:48:23.000Z</time>
      </trkpt>
      <trkpt lat="44.14833" lon="0.59552">
        <ele>122.9</ele>
        <time>2025-08-31T08:48:36.000Z</time>
      </trkpt>
      <trkpt lat="44.14826" lon="0.59561">
        <ele>121.5</ele>
        <time>2025-08-31T08:48:56.000Z</time>
      </trkpt>
      <trkpt lat="44.1482" lon="0.5957">
        <ele>120.2</ele>
        <time>2025-08-31T08:49:04.000Z</time>
      </trkpt>
      <trkpt lat="44.14816" lon="0.5958">
        <ele>119</ele>
        <time>2025-08-31T08:49:13.000Z</time>
      </trkpt>
      <trkpt lat="44.14812" lon="0.59592">
        <ele>117.5</ele>
        <time>2025-08-31T08:49:23.000Z</time>
      </trkpt>
      <trkpt lat="44.14806" lon="0.59603">
        <ele>115.7</ele>
        <time>2025-08-31T08:49:35.000Z</time>
      </trkpt>
      <trkpt lat="44.14798" lon="0.5961">
        <ele>114</ele>
        <time>2025-08-31T08:49:45.000Z</time>
      </trkpt>
      <trkpt lat="44.14792" lon="0.59619">
        <ele>112.3</ele>
        <time>2025-08-31T08:49:53.000Z</time>
      </trkpt>
      <trkpt lat="44.14785" lon="0.59628">
        <ele>110.6</ele>
        <time>2025-08-31T08:50:01.000Z</time>
      </trkpt>
      <trkpt lat="44.14779" lon="0.5964">
        <ele>109.2</ele>
        <time>2025-08-31T08:50:11.000Z</time>
      </trkpt>
      <trkpt lat="44.14776" lon="0.59652">
        <ele>109.5</ele>
        <time>2025-08-31T08:50:19.000Z</time>
      </trkpt>
      <trkpt lat="44.14773" lon="0.59665">
        <ele>109.8</ele>
        <time>2025-08-31T08:50:29.000Z</time>
      </trkpt>
      <trkpt lat="44.14771" lon="0.59678">
        <ele>109</ele>
        <time>2025-08-31T08:50:39.000Z</time>
      </trkpt>
      <trkpt lat="44.14771" lon="0.59691">
        <ele>108</ele>
        <time>2025-08-31T08:50:51.000Z</time>
      </trkpt>
      <trkpt lat="44.14768" lon="0.59703">
        <ele>106.9</ele>
        <time>2025-08-31T08:50:59.000Z</time>
      </trkpt>
      <trkpt lat="44.14767" lon="0.59716">
        <ele>105.8</ele>
        <time>2025-08-31T08:51:07.000Z</time>
      </trkpt>
      <trkpt lat="44.14769" lon="0.59729">
        <ele>104.7</ele>
        <time>2025-08-31T08:51:16.000Z</time>
      </trkpt>
      <trkpt lat="44.14768" lon="0.59742">
        <ele>103.4</ele>
        <time>2025-08-31T08:51:23.000Z</time>
      </trkpt>
      <trkpt lat="44.14769" lon="0.59755">
        <ele>102.3</ele>
        <time>2025-08-31T08:52:03.000Z</time>
      </trkpt>
      <trkpt lat="44.14765" lon="0.59768">
        <ele>101.5</ele>
        <time>2025-08-31T08:52:11.000Z</time>
      </trkpt>
      <trkpt lat="44.1476" lon="0.59781">
        <ele>100.9</ele>
        <time>2025-08-31T08:52:21.000Z</time>
      </trkpt>
      <trkpt lat="44.14759" lon="0.59794">
        <ele>100.2</ele>
        <time>2025-08-31T08:52:29.000Z</time>
      </trkpt>
      <trkpt lat="44.14757" lon="0.59806">
        <ele>99.7</ele>
        <time>2025-08-31T08:52:37.000Z</time>
      </trkpt>
      <trkpt lat="44.14754" lon="0.59819">
        <ele>99.3</ele>
        <time>2025-08-31T08:52:45.000Z</time>
      </trkpt>
      <trkpt lat="44.14753" lon="0.59832">
        <ele>98.8</ele>
        <time>2025-08-31T08:52:55.000Z</time>
      </trkpt>
      <trkpt lat="44.14751" lon="0.59845">
        <ele>98.1</ele>
        <time>2025-08-31T08:53:03.000Z</time>
      </trkpt>
      <trkpt lat="44.14748" lon="0.59859">
        <ele>97.9</ele>
        <time>2025-08-31T08:53:13.000Z</time>
      </trkpt>
      <trkpt lat="44.14747" lon="0.59873">
        <ele>97.5</ele>
        <time>2025-08-31T08:53:21.000Z</time>
      </trkpt>
      <trkpt lat="44.14747" lon="0.59887">
        <ele>97.1</ele>
        <time>2025-08-31T08:53:31.000Z</time>
      </trkpt>
      <trkpt lat="44.14742" lon="0.59899">
        <ele>97.4</ele>
        <time>2025-08-31T08:53:41.000Z</time>
      </trkpt>
      <trkpt lat="44.1474" lon="0.59913">
        <ele>96.8</ele>
        <time>2025-08-31T08:53:47.000Z</time>
      </trkpt>
      <trkpt lat="44.1474" lon="0.59926">
        <ele>95.8</ele>
        <time>2025-08-31T08:53:55.000Z</time>
      </trkpt>
      <trkpt lat="44.14736" lon="0.59938">
        <ele>95.7</ele>
        <time>2025-08-31T08:54:04.000Z</time>
      </trkpt>
      <trkpt lat="44.14732" lon="0.5995">
        <ele>95.5</ele>
        <time>2025-08-31T08:54:09.000Z</time>
      </trkpt>
      <trkpt lat="44.14727" lon="0.59963">
        <ele>95.1</ele>
        <time>2025-08-31T08:54:17.000Z</time>
      </trkpt>
      <trkpt lat="44.14723" lon="0.59975">
        <ele>94.6</ele>
        <time>2025-08-31T08:54:25.000Z</time>
      </trkpt>
      <trkpt lat="44.14719" lon="0.59987">
        <ele>93.8</ele>
        <time>2025-08-31T08:54:33.000Z</time>
      </trkpt>
      <trkpt lat="44.14714" lon="0.6">
        <ele>92.9</ele>
        <time>2025-08-31T08:54:44.000Z</time>
      </trkpt>
      <trkpt lat="44.14709" lon="0.60012">
        <ele>92.4</ele>
        <time>2025-08-31T08:54:51.000Z</time>
      </trkpt>
      <trkpt lat="44.14704" lon="0.60022">
        <ele>92.1</ele>
        <time>2025-08-31T08:55:13.000Z</time>
      </trkpt>
      <trkpt lat="44.14697" lon="0.60032">
        <ele>92</ele>
        <time>2025-08-31T08:55:48.000Z</time>
      </trkpt>
      <trkpt lat="44.14691" lon="0.60042">
        <ele>91</ele>
        <time>2025-08-31T08:55:56.000Z</time>
      </trkpt>
      <trkpt lat="44.14685" lon="0.60052">
        <ele>89.8</ele>
        <time>2025-08-31T08:56:04.000Z</time>
      </trkpt>
      <trkpt lat="44.14679" lon="0.60062">
        <ele>88.9</ele>
        <time>2025-08-31T08:56:12.000Z</time>
      </trkpt>
      <trkpt lat="44.14674" lon="0.60072">
        <ele>88.1</ele>
        <time>2025-08-31T08:56:22.000Z</time>
      </trkpt>
      <trkpt lat="44.14667" lon="0.60083">
        <ele>87</ele>
        <time>2025-08-31T08:56:31.000Z</time>
      </trkpt>
      <trkpt lat="44.14661" lon="0.60094">
        <ele>85.8</ele>
        <time>2025-08-31T08:56:40.000Z</time>
      </trkpt>
      <trkpt lat="44.14655" lon="0.60105">
        <ele>84.7</ele>
        <time>2025-08-31T08:56:52.000Z</time>
      </trkpt>
      <trkpt lat="44.14649" lon="0.60115">
        <ele>83.7</ele>
        <time>2025-08-31T08:57:00.000Z</time>
      </trkpt>
      <trkpt lat="44.14642" lon="0.60126">
        <ele>82.9</ele>
        <time>2025-08-31T08:57:10.000Z</time>
      </trkpt>
      <trkpt lat="44.14636" lon="0.60135">
        <ele>82.3</ele>
        <time>2025-08-31T08:57:22.000Z</time>
      </trkpt>
      <trkpt lat="44.1463" lon="0.60145">
        <ele>81.6</ele>
        <time>2025-08-31T08:57:32.000Z</time>
      </trkpt>
      <trkpt lat="44.14624" lon="0.60155">
        <ele>80.9</ele>
        <time>2025-08-31T08:57:42.000Z</time>
      </trkpt>
      <trkpt lat="44.14617" lon="0.60164">
        <ele>80.2</ele>
        <time>2025-08-31T08:57:51.000Z</time>
      </trkpt>
      <trkpt lat="44.1461" lon="0.60173">
        <ele>79.6</ele>
        <time>2025-08-31T08:57:58.000Z</time>
      </trkpt>
      <trkpt lat="44.14604" lon="0.60183">
        <ele>79</ele>
        <time>2025-08-31T08:58:06.000Z</time>
      </trkpt>
      <trkpt lat="44.14599" lon="0.60193">
        <ele>78.5</ele>
        <time>2025-08-31T08:58:14.000Z</time>
      </trkpt>
      <trkpt lat="44.14592" lon="0.60203">
        <ele>78.5</ele>
        <time>2025-08-31T08:58:22.000Z</time>
      </trkpt>
      <trkpt lat="44.14585" lon="0.60214">
        <ele>78.3</ele>
        <time>2025-08-31T08:58:30.000Z</time>
      </trkpt>
      <trkpt lat="44.1458" lon="0.60226">
        <ele>77.9</ele>
        <time>2025-08-31T08:58:38.000Z</time>
      </trkpt>
      <trkpt lat="44.14576" lon="0.60238">
        <ele>77.4</ele>
        <time>2025-08-31T08:58:46.000Z</time>
      </trkpt>
      <trkpt lat="44.1457" lon="0.60249">
        <ele>77</ele>
        <time>2025-08-31T08:58:56.000Z</time>
      </trkpt>
      <trkpt lat="44.1458" lon="0.60243">
        <ele>77.2</ele>
        <time>2025-08-31T09:00:28.000Z</time>
      </trkpt>
      <trkpt lat="44.1459" lon="0.60244">
        <ele>77.2</ele>
        <time>2025-08-31T09:00:36.000Z</time>
      </trkpt>
      <trkpt lat="44.14601" lon="0.60243">
        <ele>77.3</ele>
        <time>2025-08-31T09:00:46.000Z</time>
      </trkpt>
      <trkpt lat="44.14613" lon="0.60242">
        <ele>77.3</ele>
        <time>2025-08-31T09:00:56.000Z</time>
      </trkpt>
      <trkpt lat="44.14623" lon="0.60243">
        <ele>77.2</ele>
        <time>2025-08-31T09:01:06.000Z</time>
      </trkpt>
      <trkpt lat="44.14633" lon="0.60246">
        <ele>77.2</ele>
        <time>2025-08-31T09:01:14.000Z</time>
      </trkpt>
      <trkpt lat="44.14643" lon="0.60246">
        <ele>77.1</ele>
        <time>2025-08-31T09:01:22.000Z</time>
      </trkpt>
      <trkpt lat="44.14652" lon="0.60247">
        <ele>77.1</ele>
        <time>2025-08-31T09:01:30.000Z</time>
      </trkpt>
      <trkpt lat="44.1466" lon="0.60249">
        <ele>77</ele>
        <time>2025-08-31T09:01:38.000Z</time>
      </trkpt>
      <trkpt lat="44.1467" lon="0.60248">
        <ele>77.2</ele>
        <time>2025-08-31T09:01:46.000Z</time>
      </trkpt>
      <trkpt lat="44.1468" lon="0.60247">
        <ele>77.5</ele>
        <time>2025-08-31T09:01:56.000Z</time>
      </trkpt>
      <trkpt lat="44.14688" lon="0.60246">
        <ele>77.8</ele>
        <time>2025-08-31T09:02:04.000Z</time>
      </trkpt>
      <trkpt lat="44.14697" lon="0.60245">
        <ele>78</ele>
        <time>2025-08-31T09:02:12.000Z</time>
      </trkpt>
      <trkpt lat="44.14707" lon="0.60242">
        <ele>78.1</ele>
        <time>2025-08-31T09:02:20.000Z</time>
      </trkpt>
      <trkpt lat="44.14716" lon="0.60238">
        <ele>78.3</ele>
        <time>2025-08-31T09:02:30.000Z</time>
      </trkpt>
      <trkpt lat="44.14725" lon="0.60235">
        <ele>78.7</ele>
        <time>2025-08-31T09:02:38.000Z</time>
      </trkpt>
      <trkpt lat="44.14734" lon="0.60232">
        <ele>79.1</ele>
        <time>2025-08-31T09:02:46.000Z</time>
      </trkpt>
      <trkpt lat="44.14743" lon="0.60229">
        <ele>79.5</ele>
        <time>2025-08-31T09:02:54.000Z</time>
      </trkpt>
      <trkpt lat="44.14752" lon="0.60228">
        <ele>79.8</ele>
        <time>2025-08-31T09:03:02.000Z</time>
      </trkpt>
      <trkpt lat="44.14762" lon="0.60224">
        <ele>79.9</ele>
        <time>2025-08-31T09:03:10.000Z</time>
      </trkpt>
      <trkpt lat="44.14771" lon="0.60222">
        <ele>80</ele>
        <time>2025-08-31T09:03:18.000Z</time>
      </trkpt>
      <trkpt lat="44.1478" lon="0.60219">
        <ele>80.1</ele>
        <time>2025-08-31T09:03:26.000Z</time>
      </trkpt>
      <trkpt lat="44.14789" lon="0.60216">
        <ele>80.3</ele>
        <time>2025-08-31T09:03:34.000Z</time>
      </trkpt>
      <trkpt lat="44.14798" lon="0.60218">
        <ele>80.3</ele>
        <time>2025-08-31T09:03:42.000Z</time>
      </trkpt>
      <trkpt lat="44.14808" lon="0.6022">
        <ele>80.1</ele>
        <time>2025-08-31T09:03:52.000Z</time>
      </trkpt>
      <trkpt lat="44.14818" lon="0.6022">
        <ele>79.8</ele>
        <time>2025-08-31T09:04:02.000Z</time>
      </trkpt>
      <trkpt lat="44.14827" lon="0.60218">
        <ele>79.7</ele>
        <time>2025-08-31T09:04:10.000Z</time>
      </trkpt>
      <trkpt lat="44.14837" lon="0.60219">
        <ele>79.8</ele>
        <time>2025-08-31T09:04:20.000Z</time>
      </trkpt>
      <trkpt lat="44.14847" lon="0.60221">
        <ele>80.2</ele>
        <time>2025-08-31T09:04:29.000Z</time>
      </trkpt>
      <trkpt lat="44.14856" lon="0.60223">
        <ele>80.6</ele>
        <time>2025-08-31T09:04:36.000Z</time>
      </trkpt>
      <trkpt lat="44.14865" lon="0.60224">
        <ele>80.9</ele>
        <time>2025-08-31T09:04:45.000Z</time>
      </trkpt>
      <trkpt lat="44.14876" lon="0.60225">
        <ele>81.2</ele>
        <time>2025-08-31T09:04:55.000Z</time>
      </trkpt>
      <trkpt lat="44.14886" lon="0.60227">
        <ele>81.4</ele>
        <time>2025-08-31T09:05:03.000Z</time>
      </trkpt>
      <trkpt lat="44.14895" lon="0.60227">
        <ele>81.5</ele>
        <time>2025-08-31T09:05:13.000Z</time>
      </trkpt>
      <trkpt lat="44.14905" lon="0.60225">
        <ele>81.7</ele>
        <time>2025-08-31T09:06:29.000Z</time>
      </trkpt>
      <trkpt lat="44.14915" lon="0.60226">
        <ele>81.6</ele>
        <time>2025-08-31T09:06:39.000Z</time>
      </trkpt>
      <trkpt lat="44.14924" lon="0.60229">
        <ele>81.5</ele>
        <time>2025-08-31T09:06:49.000Z</time>
      </trkpt>
      <trkpt lat="44.14933" lon="0.60232">
        <ele>81.3</ele>
        <time>2025-08-31T09:06:59.000Z</time>
      </trkpt>
      <trkpt lat="44.14942" lon="0.60231">
        <ele>81.7</ele>
        <time>2025-08-31T09:07:07.000Z</time>
      </trkpt>
      <trkpt lat="44.14951" lon="0.60229">
        <ele>81.9</ele>
        <time>2025-08-31T09:07:19.000Z</time>
      </trkpt>
      <trkpt lat="44.14961" lon="0.60229">
        <ele>81.5</ele>
        <time>2025-08-31T09:07:27.000Z</time>
      </trkpt>
      <trkpt lat="44.14972" lon="0.6023">
        <ele>81.2</ele>
        <time>2025-08-31T09:07:39.000Z</time>
      </trkpt>
      <trkpt lat="44.14983" lon="0.60228">
        <ele>81.3</ele>
        <time>2025-08-31T09:07:47.000Z</time>
      </trkpt>
      <trkpt lat="44.14994" lon="0.60229">
        <ele>81.2</ele>
        <time>2025-08-31T09:07:55.000Z</time>
      </trkpt>
      <trkpt lat="44.15004" lon="0.60231">
        <ele>80.8</ele>
        <time>2025-08-31T09:08:04.000Z</time>
      </trkpt>
      <trkpt lat="44.15014" lon="0.60233">
        <ele>80.2</ele>
        <time>2025-08-31T09:08:12.000Z</time>
      </trkpt>
      <trkpt lat="44.15023" lon="0.60231">
        <ele>79.9</ele>
        <time>2025-08-31T09:08:20.000Z</time>
      </trkpt>
      <trkpt lat="44.15033" lon="0.60228">
        <ele>80</ele>
        <time>2025-08-31T09:08:28.000Z</time>
      </trkpt>
      <trkpt lat="44.15042" lon="0.60227">
        <ele>79.8</ele>
        <time>2025-08-31T09:08:38.000Z</time>
      </trkpt>
      <trkpt lat="44.15052" lon="0.60227">
        <ele>79.4</ele>
        <time>2025-08-31T09:08:46.000Z</time>
      </trkpt>
      <trkpt lat="44.15063" lon="0.60228">
        <ele>78.9</ele>
        <time>2025-08-31T09:08:54.000Z</time>
      </trkpt>
      <trkpt lat="44.15073" lon="0.60229">
        <ele>78.5</ele>
        <time>2025-08-31T09:09:02.000Z</time>
      </trkpt>
      <trkpt lat="44.15083" lon="0.60229">
        <ele>78.3</ele>
        <time>2025-08-31T09:09:10.000Z</time>
      </trkpt>
      <trkpt lat="44.15092" lon="0.60226">
        <ele>78.3</ele>
        <time>2025-08-31T09:09:18.000Z</time>
      </trkpt>
      <trkpt lat="44.15102" lon="0.60222">
        <ele>78.4</ele>
        <time>2025-08-31T09:09:28.000Z</time>
      </trkpt>
      <trkpt lat="44.15111" lon="0.60215">
        <ele>78.3</ele>
        <time>2025-08-31T09:09:38.000Z</time>
      </trkpt>
      <trkpt lat="44.15119" lon="0.60209">
        <ele>78.7</ele>
        <time>2025-08-31T09:09:46.000Z</time>
      </trkpt>
      <trkpt lat="44.15127" lon="0.60202">
        <ele>79.6</ele>
        <time>2025-08-31T09:09:56.000Z</time>
      </trkpt>
      <trkpt lat="44.15135" lon="0.60194">
        <ele>80.8</ele>
        <time>2025-08-31T09:10:06.000Z</time>
      </trkpt>
      <trkpt lat="44.15144" lon="0.60186">
        <ele>81.8</ele>
        <time>2025-08-31T09:10:14.000Z</time>
      </trkpt>
      <trkpt lat="44.15151" lon="0.60178">
        <ele>83.3</ele>
        <time>2025-08-31T09:10:22.000Z</time>
      </trkpt>
      <trkpt lat="44.15158" lon="0.60169">
        <ele>85.2</ele>
        <time>2025-08-31T09:10:34.000Z</time>
      </trkpt>
      <trkpt lat="44.15167" lon="0.60163">
        <ele>87.2</ele>
        <time>2025-08-31T09:10:44.000Z</time>
      </trkpt>
      <trkpt lat="44.15173" lon="0.60155">
        <ele>88.3</ele>
        <time>2025-08-31T09:10:58.000Z</time>
      </trkpt>
      <trkpt lat="44.15174" lon="0.60143">
        <ele>89.2</ele>
        <time>2025-08-31T09:11:28.000Z</time>
      </trkpt>
      <trkpt lat="44.15174" lon="0.6013">
        <ele>89.9</ele>
        <time>2025-08-31T09:11:38.000Z</time>
      </trkpt>
      <trkpt lat="44.15174" lon="0.60118">
        <ele>90.5</ele>
        <time>2025-08-31T09:12:40.000Z</time>
      </trkpt>
      <trkpt lat="44.15179" lon="0.60109">
        <ele>91.5</ele>
        <time>2025-08-31T09:12:50.000Z</time>
      </trkpt>
      <trkpt lat="44.15188" lon="0.60105">
        <ele>92.5</ele>
        <time>2025-08-31T09:13:02.000Z</time>
      </trkpt>
      <trkpt lat="44.15196" lon="0.60101">
        <ele>93.4</ele>
        <time>2025-08-31T09:13:14.000Z</time>
      </trkpt>
      <trkpt lat="44.15204" lon="0.60103">
        <ele>93.2</ele>
        <time>2025-08-31T09:14:10.000Z</time>
      </trkpt>
      <trkpt lat="44.15209" lon="0.60094">
        <ele>93.7</ele>
        <time>2025-08-31T09:14:24.000Z</time>
      </trkpt>
      <trkpt lat="44.1521" lon="0.60082">
        <ele>94.6</ele>
        <time>2025-08-31T09:14:32.000Z</time>
      </trkpt>
      <trkpt lat="44.1521" lon="0.60068">
        <ele>95.4</ele>
        <time>2025-08-31T09:14:42.000Z</time>
      </trkpt>
      <trkpt lat="44.15212" lon="0.60055">
        <ele>96.3</ele>
        <time>2025-08-31T09:14:50.000Z</time>
      </trkpt>
      <trkpt lat="44.15213" lon="0.60042">
        <ele>98</ele>
        <time>2025-08-31T09:15:00.000Z</time>
      </trkpt>
      <trkpt lat="44.15214" lon="0.60028">
        <ele>99.7</ele>
        <time>2025-08-31T09:15:13.000Z</time>
      </trkpt>
      <trkpt lat="44.15214" lon="0.60015">
        <ele>102</ele>
        <time>2025-08-31T09:15:24.000Z</time>
      </trkpt>
      <trkpt lat="44.15219" lon="0.60004">
        <ele>104.7</ele>
        <time>2025-08-31T09:15:38.000Z</time>
      </trkpt>
      <trkpt lat="44.15226" lon="0.6">
        <ele>105.7</ele>
        <time>2025-08-31T09:15:48.000Z</time>
      </trkpt>
      <trkpt lat="44.15235" lon="0.59998">
        <ele>105.7</ele>
        <time>2025-08-31T09:15:58.000Z</time>
      </trkpt>
      <trkpt lat="44.15245" lon="0.59996">
        <ele>105.6</ele>
        <time>2025-08-31T09:16:13.000Z</time>
      </trkpt>
      <trkpt lat="44.15252" lon="0.5999">
        <ele>107</ele>
        <time>2025-08-31T09:16:21.000Z</time>
      </trkpt>
      <trkpt lat="44.15252" lon="0.59979">
        <ele>109.9</ele>
        <time>2025-08-31T09:16:31.000Z</time>
      </trkpt>
      <trkpt lat="44.15245" lon="0.59973">
        <ele>112</ele>
        <time>2025-08-31T09:17:30.000Z</time>
      </trkpt>
      <trkpt lat="44.15238" lon="0.59966">
        <ele>113.7</ele>
        <time>2025-08-31T09:17:40.000Z</time>
      </trkpt>
      <trkpt lat="44.1523" lon="0.59958">
        <ele>115.4</ele>
        <time>2025-08-31T09:17:52.000Z</time>
      </trkpt>
      <trkpt lat="44.15223" lon="0.59949">
        <ele>117.2</ele>
        <time>2025-08-31T09:18:02.000Z</time>
      </trkpt>
      <trkpt lat="44.15217" lon="0.59938">
        <ele>118.5</ele>
        <time>2025-08-31T09:18:12.000Z</time>
      </trkpt>
      <trkpt lat="44.1521" lon="0.59928">
        <ele>119.6</ele>
        <time>2025-08-31T09:18:26.000Z</time>
      </trkpt>
      <trkpt lat="44.15206" lon="0.59916">
        <ele>121.4</ele>
        <time>2025-08-31T09:18:34.000Z</time>
      </trkpt>
      <trkpt lat="44.15205" lon="0.59903">
        <ele>122.1</ele>
        <time>2025-08-31T09:18:44.000Z</time>
      </trkpt>
      <trkpt lat="44.15203" lon="0.5989">
        <ele>122.9</ele>
        <time>2025-08-31T09:18:54.000Z</time>
      </trkpt>
      <trkpt lat="44.15203" lon="0.59877">
        <ele>123.6</ele>
        <time>2025-08-31T09:19:04.000Z</time>
      </trkpt>
      <trkpt lat="44.15208" lon="0.59866">
        <ele>124.7</ele>
        <time>2025-08-31T09:19:16.000Z</time>
      </trkpt>
      <trkpt lat="44.15212" lon="0.59854">
        <ele>125.6</ele>
        <time>2025-08-31T09:19:24.000Z</time>
      </trkpt>
      <trkpt lat="44.15214" lon="0.59842">
        <ele>126.6</ele>
        <time>2025-08-31T09:19:32.000Z</time>
      </trkpt>
      <trkpt lat="44.15217" lon="0.59829">
        <ele>127.5</ele>
        <time>2025-08-31T09:19:42.000Z</time>
      </trkpt>
      <trkpt lat="44.15221" lon="0.59817">
        <ele>127.9</ele>
        <time>2025-08-31T09:19:50.000Z</time>
      </trkpt>
      <trkpt lat="44.15223" lon="0.59805">
        <ele>128.1</ele>
        <time>2025-08-31T09:20:00.000Z</time>
      </trkpt>
      <trkpt lat="44.15225" lon="0.59794">
        <ele>129.3</ele>
        <time>2025-08-31T09:20:16.000Z</time>
      </trkpt>
      <trkpt lat="44.15229" lon="0.59782">
        <ele>130.6</ele>
        <time>2025-08-31T09:21:58.000Z</time>
      </trkpt>
      <trkpt lat="44.15231" lon="0.59768">
        <ele>131.9</ele>
        <time>2025-08-31T09:22:09.000Z</time>
      </trkpt>
      <trkpt lat="44.15231" lon="0.59755">
        <ele>133</ele>
        <time>2025-08-31T09:22:18.000Z</time>
      </trkpt>
      <trkpt lat="44.15231" lon="0.59741">
        <ele>134.4</ele>
        <time>2025-08-31T09:22:30.000Z</time>
      </trkpt>
      <trkpt lat="44.15233" lon="0.59727">
        <ele>136.3</ele>
        <time>2025-08-31T09:22:38.000Z</time>
      </trkpt>
      <trkpt lat="44.15236" lon="0.59714">
        <ele>138.1</ele>
        <time>2025-08-31T09:22:48.000Z</time>
      </trkpt>
      <trkpt lat="44.15239" lon="0.59702">
        <ele>139.4</ele>
        <time>2025-08-31T09:22:58.000Z</time>
      </trkpt>
      <trkpt lat="44.1524" lon="0.5969">
        <ele>140.5</ele>
        <time>2025-08-31T09:23:13.000Z</time>
      </trkpt>
      <trkpt lat="44.1524" lon="0.59678">
        <ele>141.3</ele>
        <time>2025-08-31T09:23:45.000Z</time>
      </trkpt>
      <trkpt lat="44.15241" lon="0.59665">
        <ele>142.1</ele>
        <time>2025-08-31T09:24:09.000Z</time>
      </trkpt>
      <trkpt lat="44.15245" lon="0.59654">
        <ele>142.9</ele>
        <time>2025-08-31T09:24:15.000Z</time>
      </trkpt>
      <trkpt lat="44.15246" lon="0.59641">
        <ele>143.5</ele>
        <time>2025-08-31T09:24:21.000Z</time>
      </trkpt>
      <trkpt lat="44.15246" lon="0.59627">
        <ele>143.6</ele>
        <time>2025-08-31T09:24:29.000Z</time>
      </trkpt>
      <trkpt lat="44.15247" lon="0.59613">
        <ele>143.6</ele>
        <time>2025-08-31T09:24:37.000Z</time>
      </trkpt>
      <trkpt lat="44.15248" lon="0.59599">
        <ele>143.8</ele>
        <time>2025-08-31T09:24:45.000Z</time>
      </trkpt>
      <trkpt lat="44.15249" lon="0.59586">
        <ele>143.9</ele>
        <time>2025-08-31T09:24:53.000Z</time>
      </trkpt>
      <trkpt lat="44.15251" lon="0.59572">
        <ele>143.6</ele>
        <time>2025-08-31T09:25:01.000Z</time>
      </trkpt>
      <trkpt lat="44.15253" lon="0.59559">
        <ele>143.1</ele>
        <time>2025-08-31T09:25:11.000Z</time>
      </trkpt>
      <trkpt lat="44.15254" lon="0.59546">
        <ele>142.6</ele>
        <time>2025-08-31T09:25:19.000Z</time>
      </trkpt>
      <trkpt lat="44.15255" lon="0.59532">
        <ele>142</ele>
        <time>2025-08-31T09:25:27.000Z</time>
      </trkpt>
      <trkpt lat="44.15254" lon="0.59518">
        <ele>141.5</ele>
        <time>2025-08-31T09:25:35.000Z</time>
      </trkpt>
      <trkpt lat="44.1525" lon="0.59508">
        <ele>141.3</ele>
        <time>2025-08-31T09:25:45.000Z</time>
      </trkpt>
      <trkpt lat="44.15242" lon="0.595">
        <ele>141.3</ele>
        <time>2025-08-31T09:25:55.000Z</time>
      </trkpt>
      <trkpt lat="44.15235" lon="0.59491">
        <ele>141.7</ele>
        <time>2025-08-31T09:26:03.000Z</time>
      </trkpt>
      <trkpt lat="44.1523" lon="0.5948">
        <ele>141.9</ele>
        <time>2025-08-31T09:26:11.000Z</time>
      </trkpt>
      <trkpt lat="44.15234" lon="0.59469">
        <ele>141.9</ele>
        <time>2025-08-31T09:26:39.000Z</time>
      </trkpt>
      <trkpt lat="44.1524" lon="0.59458">
        <ele>141.4</ele>
        <time>2025-08-31T09:26:53.000Z</time>
      </trkpt>
      <trkpt lat="44.15246" lon="0.59447">
        <ele>140.5</ele>
        <time>2025-08-31T09:27:01.000Z</time>
      </trkpt>
      <trkpt lat="44.15253" lon="0.59439">
        <ele>139.8</ele>
        <time>2025-08-31T09:27:11.000Z</time>
      </trkpt>
      <trkpt lat="44.15257" lon="0.59426">
        <ele>139.5</ele>
        <time>2025-08-31T09:27:19.000Z</time>
      </trkpt>
      <trkpt lat="44.15263" lon="0.59416">
        <ele>139.1</ele>
        <time>2025-08-31T09:27:27.000Z</time>
      </trkpt>
      <trkpt lat="44.15271" lon="0.59409">
        <ele>138.5</ele>
        <time>2025-08-31T09:27:35.000Z</time>
      </trkpt>
      <trkpt lat="44.15277" lon="0.594">
        <ele>138</ele>
        <time>2025-08-31T09:27:43.000Z</time>
      </trkpt>
      <trkpt lat="44.15284" lon="0.59391">
        <ele>137.6</ele>
        <time>2025-08-31T09:27:51.000Z</time>
      </trkpt>
      <trkpt lat="44.1529" lon="0.59382">
        <ele>137.2</ele>
        <time>2025-08-31T09:27:59.000Z</time>
      </trkpt>
      <trkpt lat="44.15296" lon="0.59373">
        <ele>137.1</ele>
        <time>2025-08-31T09:28:08.000Z</time>
      </trkpt>
      <trkpt lat="44.15303" lon="0.59364">
        <ele>137</ele>
        <time>2025-08-31T09:28:15.000Z</time>
      </trkpt>
      <trkpt lat="44.15309" lon="0.59354">
        <ele>136.8</ele>
        <time>2025-08-31T09:28:23.000Z</time>
      </trkpt>
      <trkpt lat="44.15315" lon="0.59343">
        <ele>136.5</ele>
        <time>2025-08-31T09:28:33.000Z</time>
      </trkpt>
      <trkpt lat="44.15322" lon="0.59333">
        <ele>136.4</ele>
        <time>2025-08-31T09:28:41.000Z</time>
      </trkpt>
      <trkpt lat="44.15329" lon="0.59323">
        <ele>136.5</ele>
        <time>2025-08-31T09:28:51.000Z</time>
      </trkpt>
      <trkpt lat="44.15337" lon="0.59315">
        <ele>136.4</ele>
        <time>2025-08-31T09:29:01.000Z</time>
      </trkpt>
      <trkpt lat="44.15344" lon="0.59306">
        <ele>136.2</ele>
        <time>2025-08-31T09:29:09.000Z</time>
      </trkpt>
      <trkpt lat="44.15352" lon="0.59296">
        <ele>136.1</ele>
        <time>2025-08-31T09:29:17.000Z</time>
      </trkpt>
      <trkpt lat="44.15359" lon="0.59287">
        <ele>136.4</ele>
        <time>2025-08-31T09:29:25.000Z</time>
      </trkpt>
      <trkpt lat="44.15365" lon="0.59278">
        <ele>136.6</ele>
        <time>2025-08-31T09:29:33.000Z</time>
      </trkpt>
      <trkpt lat="44.15372" lon="0.59268">
        <ele>136.3</ele>
        <time>2025-08-31T09:29:41.000Z</time>
      </trkpt>
      <trkpt lat="44.15381" lon="0.5926">
        <ele>136</ele>
        <time>2025-08-31T09:29:51.000Z</time>
      </trkpt>
      <trkpt lat="44.15389" lon="0.59251">
        <ele>136</ele>
        <time>2025-08-31T09:30:01.000Z</time>
      </trkpt>
      <trkpt lat="44.15396" lon="0.59241">
        <ele>136.1</ele>
        <time>2025-08-31T09:30:11.000Z</time>
      </trkpt>
      <trkpt lat="44.15403" lon="0.59232">
        <ele>136.3</ele>
        <time>2025-08-31T09:30:19.000Z</time>
      </trkpt>
      <trkpt lat="44.15412" lon="0.59224">
        <ele>136.2</ele>
        <time>2025-08-31T09:30:29.000Z</time>
      </trkpt>
      <trkpt lat="44.15421" lon="0.59221">
        <ele>135.9</ele>
        <time>2025-08-31T09:30:37.000Z</time>
      </trkpt>
      <trkpt lat="44.15431" lon="0.59222">
        <ele>135.5</ele>
        <time>2025-08-31T09:30:45.000Z</time>
      </trkpt>
      <trkpt lat="44.15441" lon="0.59226">
        <ele>134.9</ele>
        <time>2025-08-31T09:30:55.000Z</time>
      </trkpt>
      <trkpt lat="44.15451" lon="0.5923">
        <ele>134.2</ele>
        <time>2025-08-31T09:31:05.000Z</time>
      </trkpt>
      <trkpt lat="44.15461" lon="0.59233">
        <ele>133.6</ele>
        <time>2025-08-31T09:31:13.000Z</time>
      </trkpt>
      <trkpt lat="44.1547" lon="0.59234">
        <ele>133.2</ele>
        <time>2025-08-31T09:31:21.000Z</time>
      </trkpt>
      <trkpt lat="44.15479" lon="0.59236">
        <ele>133.1</ele>
        <time>2025-08-31T09:31:29.000Z</time>
      </trkpt>
      <trkpt lat="44.1549" lon="0.59241">
        <ele>133.1</ele>
        <time>2025-08-31T09:31:37.000Z</time>
      </trkpt>
      <trkpt lat="44.15499" lon="0.59244">
        <ele>133.2</ele>
        <time>2025-08-31T09:31:47.000Z</time>
      </trkpt>
      <trkpt lat="44.15509" lon="0.59245">
        <ele>133.2</ele>
        <time>2025-08-31T09:31:55.000Z</time>
      </trkpt>
      <trkpt lat="44.15519" lon="0.5924">
        <ele>133.4</ele>
        <time>2025-08-31T09:32:05.000Z</time>
      </trkpt>
      <trkpt lat="44.15527" lon="0.59232">
        <ele>133.6</ele>
        <time>2025-08-31T09:32:14.000Z</time>
      </trkpt>
      <trkpt lat="44.15534" lon="0.5922">
        <ele>133.9</ele>
        <time>2025-08-31T09:32:22.000Z</time>
      </trkpt>
      <trkpt lat="44.15538" lon="0.59207">
        <ele>134.4</ele>
        <time>2025-08-31T09:32:30.000Z</time>
      </trkpt>
      <trkpt lat="44.15544" lon="0.59197">
        <ele>134.9</ele>
        <time>2025-08-31T09:32:38.000Z</time>
      </trkpt>
      <trkpt lat="44.15549" lon="0.59185">
        <ele>135</ele>
        <time>2025-08-31T09:32:46.000Z</time>
      </trkpt>
      <trkpt lat="44.15555" lon="0.59175">
        <ele>135</ele>
        <time>2025-08-31T09:32:56.000Z</time>
      </trkpt>
      <trkpt lat="44.15562" lon="0.59163">
        <ele>135.5</ele>
        <time>2025-08-31T09:33:12.000Z</time>
      </trkpt>
      <trkpt lat="44.1557" lon="0.59156">
        <ele>136</ele>
        <time>2025-08-31T09:33:29.000Z</time>
      </trkpt>
      <trkpt lat="44.15577" lon="0.5915">
        <ele>136.2</ele>
        <time>2025-08-31T09:33:59.000Z</time>
      </trkpt>
      <trkpt lat="44.15586" lon="0.59147">
        <ele>136.3</ele>
        <time>2025-08-31T09:34:06.000Z</time>
      </trkpt>
      <trkpt lat="44.15596" lon="0.59142">
        <ele>136.5</ele>
        <time>2025-08-31T09:34:14.000Z</time>
      </trkpt>
      <trkpt lat="44.15605" lon="0.59136">
        <ele>136.8</ele>
        <time>2025-08-31T09:34:22.000Z</time>
      </trkpt>
      <trkpt lat="44.15614" lon="0.59131">
        <ele>137</ele>
        <time>2025-08-31T09:34:32.000Z</time>
      </trkpt>
      <trkpt lat="44.15624" lon="0.59127">
        <ele>137</ele>
        <time>2025-08-31T09:34:42.000Z</time>
      </trkpt>
      <trkpt lat="44.15634" lon="0.59124">
        <ele>137</ele>
        <time>2025-08-31T09:34:50.000Z</time>
      </trkpt>
      <trkpt lat="44.15643" lon="0.5912">
        <ele>136.8</ele>
        <time>2025-08-31T09:34:58.000Z</time>
      </trkpt>
      <trkpt lat="44.15653" lon="0.59117">
        <ele>136.5</ele>
        <time>2025-08-31T09:35:06.000Z</time>
      </trkpt>
      <trkpt lat="44.15662" lon="0.59114">
        <ele>136.2</ele>
        <time>2025-08-31T09:35:15.000Z</time>
      </trkpt>
      <trkpt lat="44.15671" lon="0.59108">
        <ele>135.9</ele>
        <time>2025-08-31T09:35:22.000Z</time>
      </trkpt>
      <trkpt lat="44.15678" lon="0.59101">
        <ele>135.6</ele>
        <time>2025-08-31T09:35:30.000Z</time>
      </trkpt>
      <trkpt lat="44.15686" lon="0.59095">
        <ele>135.4</ele>
        <time>2025-08-31T09:35:38.000Z</time>
      </trkpt>
      <trkpt lat="44.15695" lon="0.59089">
        <ele>135.2</ele>
        <time>2025-08-31T09:35:48.000Z</time>
      </trkpt>
      <trkpt lat="44.15704" lon="0.59084">
        <ele>135</ele>
        <time>2025-08-31T09:35:56.000Z</time>
      </trkpt>
      <trkpt lat="44.15712" lon="0.59079">
        <ele>134.7</ele>
        <time>2025-08-31T09:36:04.000Z</time>
      </trkpt>
      <trkpt lat="44.1572" lon="0.59072">
        <ele>134.2</ele>
        <time>2025-08-31T09:36:12.000Z</time>
      </trkpt>
      <trkpt lat="44.15729" lon="0.59066">
        <ele>134</ele>
        <time>2025-08-31T09:36:20.000Z</time>
      </trkpt>
      <trkpt lat="44.15736" lon="0.59057">
        <ele>134.1</ele>
        <time>2025-08-31T09:36:28.000Z</time>
      </trkpt>
      <trkpt lat="44.15743" lon="0.59047">
        <ele>134.2</ele>
        <time>2025-08-31T09:36:37.000Z</time>
      </trkpt>
      <trkpt lat="44.1575" lon="0.59036">
        <ele>134.3</ele>
        <time>2025-08-31T09:36:45.000Z</time>
      </trkpt>
      <trkpt lat="44.15758" lon="0.59027">
        <ele>134.9</ele>
        <time>2025-08-31T09:36:53.000Z</time>
      </trkpt>
      <trkpt lat="44.15766" lon="0.59017">
        <ele>135.5</ele>
        <time>2025-08-31T09:37:01.000Z</time>
      </trkpt>
      <trkpt lat="44.15773" lon="0.59007">
        <ele>135.8</ele>
        <time>2025-08-31T09:37:09.000Z</time>
      </trkpt>
      <trkpt lat="44.15779" lon="0.58998">
        <ele>136.1</ele>
        <time>2025-08-31T09:37:17.000Z</time>
      </trkpt>
      <trkpt lat="44.15786" lon="0.58987">
        <ele>136.6</ele>
        <time>2025-08-31T09:37:25.000Z</time>
      </trkpt>
      <trkpt lat="44.15792" lon="0.58977">
        <ele>137.1</ele>
        <time>2025-08-31T09:37:33.000Z</time>
      </trkpt>
      <trkpt lat="44.158" lon="0.58968">
        <ele>137.5</ele>
        <time>2025-08-31T09:37:41.000Z</time>
      </trkpt>
      <trkpt lat="44.15807" lon="0.58957">
        <ele>137.5</ele>
        <time>2025-08-31T09:37:50.000Z</time>
      </trkpt>
      <trkpt lat="44.15814" lon="0.58948">
        <ele>137.7</ele>
        <time>2025-08-31T09:38:07.000Z</time>
      </trkpt>
      <trkpt lat="44.1582" lon="0.58935">
        <ele>137.7</ele>
        <time>2025-08-31T09:38:15.000Z</time>
      </trkpt>
      <trkpt lat="44.15826" lon="0.58923">
        <ele>137.7</ele>
        <time>2025-08-31T09:38:25.000Z</time>
      </trkpt>
      <trkpt lat="44.15832" lon="0.58913">
        <ele>137.8</ele>
        <time>2025-08-31T09:38:33.000Z</time>
      </trkpt>
      <trkpt lat="44.15839" lon="0.58904">
        <ele>137.9</ele>
        <time>2025-08-31T09:38:42.000Z</time>
      </trkpt>
      <trkpt lat="44.15844" lon="0.58894">
        <ele>138</ele>
        <time>2025-08-31T09:39:00.000Z</time>
      </trkpt>
      <trkpt lat="44.1585" lon="0.58884">
        <ele>137.9</ele>
        <time>2025-08-31T09:39:07.000Z</time>
      </trkpt>
      <trkpt lat="44.15854" lon="0.58873">
        <ele>137.5</ele>
        <time>2025-08-31T09:39:15.000Z</time>
      </trkpt>
      <trkpt lat="44.1586" lon="0.58862">
        <ele>137</ele>
        <time>2025-08-31T09:39:25.000Z</time>
      </trkpt>
      <trkpt lat="44.15865" lon="0.5885">
        <ele>136.8</ele>
        <time>2025-08-31T09:39:33.000Z</time>
      </trkpt>
      <trkpt lat="44.1587" lon="0.58839">
        <ele>136.5</ele>
        <time>2025-08-31T09:39:41.000Z</time>
      </trkpt>
      <trkpt lat="44.15875" lon="0.58829">
        <ele>136.4</ele>
        <time>2025-08-31T09:39:49.000Z</time>
      </trkpt>
      <trkpt lat="44.15879" lon="0.58817">
        <ele>136.1</ele>
        <time>2025-08-31T09:39:56.000Z</time>
      </trkpt>
      <trkpt lat="44.15883" lon="0.58807">
        <ele>135.8</ele>
        <time>2025-08-31T09:40:04.000Z</time>
      </trkpt>
      <trkpt lat="44.15888" lon="0.58796">
        <ele>135.6</ele>
        <time>2025-08-31T09:40:12.000Z</time>
      </trkpt>
      <trkpt lat="44.15894" lon="0.58785">
        <ele>135.3</ele>
        <time>2025-08-31T09:40:22.000Z</time>
      </trkpt>
      <trkpt lat="44.15899" lon="0.58772">
        <ele>134.8</ele>
        <time>2025-08-31T09:40:30.000Z</time>
      </trkpt>
      <trkpt lat="44.15905" lon="0.5876">
        <ele>134.4</ele>
        <time>2025-08-31T09:40:38.000Z</time>
      </trkpt>
      <trkpt lat="44.15912" lon="0.58751">
        <ele>134</ele>
        <time>2025-08-31T09:40:48.000Z</time>
      </trkpt>
      <trkpt lat="44.15918" lon="0.58739">
        <ele>133.6</ele>
        <time>2025-08-31T09:40:58.000Z</time>
      </trkpt>
      <trkpt lat="44.15922" lon="0.58727">
        <ele>133.3</ele>
        <time>2025-08-31T09:41:06.000Z</time>
      </trkpt>
      <trkpt lat="44.15924" lon="0.58713">
        <ele>133</ele>
        <time>2025-08-31T09:41:14.000Z</time>
      </trkpt>
      <trkpt lat="44.15926" lon="0.58701">
        <ele>132.8</ele>
        <time>2025-08-31T09:41:22.000Z</time>
      </trkpt>
      <trkpt lat="44.15927" lon="0.58687">
        <ele>132.5</ele>
        <time>2025-08-31T09:41:30.000Z</time>
      </trkpt>
      <trkpt lat="44.15926" lon="0.58673">
        <ele>131.9</ele>
        <time>2025-08-31T09:41:44.000Z</time>
      </trkpt>
      <trkpt lat="44.15923" lon="0.5866">
        <ele>131</ele>
        <time>2025-08-31T09:41:54.000Z</time>
      </trkpt>
      <trkpt lat="44.15921" lon="0.58648">
        <ele>130</ele>
        <time>2025-08-31T09:42:02.000Z</time>
      </trkpt>
      <trkpt lat="44.15918" lon="0.58635">
        <ele>129</ele>
        <time>2025-08-31T09:42:10.000Z</time>
      </trkpt>
      <trkpt lat="44.15915" lon="0.58623">
        <ele>128.2</ele>
        <time>2025-08-31T09:42:18.000Z</time>
      </trkpt>
      <trkpt lat="44.15911" lon="0.58611">
        <ele>127</ele>
        <time>2025-08-31T09:42:26.000Z</time>
      </trkpt>
      <trkpt lat="44.15906" lon="0.58598">
        <ele>125.2</ele>
        <time>2025-08-31T09:42:36.000Z</time>
      </trkpt>
      <trkpt lat="44.15904" lon="0.58586">
        <ele>123.8</ele>
        <time>2025-08-31T09:42:44.000Z</time>
      </trkpt>
      <trkpt lat="44.15899" lon="0.58574">
        <ele>122.3</ele>
        <time>2025-08-31T09:42:52.000Z</time>
      </trkpt>
      <trkpt lat="44.15893" lon="0.58563">
        <ele>120.9</ele>
        <time>2025-08-31T09:43:00.000Z</time>
      </trkpt>
      <trkpt lat="44.15886" lon="0.58554">
        <ele>119.5</ele>
        <time>2025-08-31T09:43:08.000Z</time>
      </trkpt>
      <trkpt lat="44.15878" lon="0.58544">
        <ele>118.5</ele>
        <time>2025-08-31T09:43:18.000Z</time>
      </trkpt>
      <trkpt lat="44.15873" lon="0.58533">
        <ele>117.8</ele>
        <time>2025-08-31T09:43:25.000Z</time>
      </trkpt>
      <trkpt lat="44.15867" lon="0.58522">
        <ele>116.7</ele>
        <time>2025-08-31T09:43:35.000Z</time>
      </trkpt>
      <trkpt lat="44.15862" lon="0.58511">
        <ele>115.5</ele>
        <time>2025-08-31T09:43:43.000Z</time>
      </trkpt>
      <trkpt lat="44.15859" lon="0.58499">
        <ele>114.5</ele>
        <time>2025-08-31T09:43:52.000Z</time>
      </trkpt>
      <trkpt lat="44.15858" lon="0.58486">
        <ele>113.3</ele>
        <time>2025-08-31T09:44:01.000Z</time>
      </trkpt>
      <trkpt lat="44.15858" lon="0.58472">
        <ele>112.3</ele>
        <time>2025-08-31T09:44:10.000Z</time>
      </trkpt>
      <trkpt lat="44.15859" lon="0.58458">
        <ele>110.6</ele>
        <time>2025-08-31T09:44:21.000Z</time>
      </trkpt>
      <trkpt lat="44.15856" lon="0.58444">
        <ele>108.4</ele>
        <time>2025-08-31T09:44:30.000Z</time>
      </trkpt>
      <trkpt lat="44.15853" lon="0.58431">
        <ele>107.1</ele>
        <time>2025-08-31T09:44:41.000Z</time>
      </trkpt>
      <trkpt lat="44.15849" lon="0.58418">
        <ele>105.8</ele>
        <time>2025-08-31T09:44:51.000Z</time>
      </trkpt>
      <trkpt lat="44.15845" lon="0.58407">
        <ele>104.2</ele>
        <time>2025-08-31T09:44:58.000Z</time>
      </trkpt>
      <trkpt lat="44.15842" lon="0.58393">
        <ele>102.4</ele>
        <time>2025-08-31T09:45:06.000Z</time>
      </trkpt>
      <trkpt lat="44.15837" lon="0.58381">
        <ele>100.6</ele>
        <time>2025-08-31T09:45:14.000Z</time>
      </trkpt>
      <trkpt lat="44.15832" lon="0.58369">
        <ele>98.8</ele>
        <time>2025-08-31T09:45:22.000Z</time>
      </trkpt>
      <trkpt lat="44.15827" lon="0.58358">
        <ele>97.5</ele>
        <time>2025-08-31T09:45:31.000Z</time>
      </trkpt>
      <trkpt lat="44.15823" lon="0.58345">
        <ele>96.5</ele>
        <time>2025-08-31T09:45:39.000Z</time>
      </trkpt>
      <trkpt lat="44.15822" lon="0.58333">
        <ele>95.6</ele>
        <time>2025-08-31T09:45:49.000Z</time>
      </trkpt>
      <trkpt lat="44.15827" lon="0.58323">
        <ele>94.7</ele>
        <time>2025-08-31T09:45:56.000Z</time>
      </trkpt>
      <trkpt lat="44.15833" lon="0.58314">
        <ele>93.9</ele>
        <time>2025-08-31T09:46:04.000Z</time>
      </trkpt>
      <trkpt lat="44.15837" lon="0.58301">
        <ele>92.9</ele>
        <time>2025-08-31T09:46:14.000Z</time>
      </trkpt>
      <trkpt lat="44.1584" lon="0.58288">
        <ele>92</ele>
        <time>2025-08-31T09:46:22.000Z</time>
      </trkpt>
      <trkpt lat="44.15845" lon="0.58277">
        <ele>91.7</ele>
        <time>2025-08-31T09:46:30.000Z</time>
      </trkpt>
      <trkpt lat="44.15853" lon="0.58268">
        <ele>92.4</ele>
        <time>2025-08-31T09:46:38.000Z</time>
      </trkpt>
      <trkpt lat="44.1586" lon="0.58258">
        <ele>91.9</ele>
        <time>2025-08-31T09:46:46.000Z</time>
      </trkpt>
      <trkpt lat="44.15866" lon="0.58248">
        <ele>91.5</ele>
        <time>2025-08-31T09:46:54.000Z</time>
      </trkpt>
      <trkpt lat="44.15871" lon="0.58234">
        <ele>91.2</ele>
        <time>2025-08-31T09:47:04.000Z</time>
      </trkpt>
      <trkpt lat="44.15876" lon="0.58223">
        <ele>91.2</ele>
        <time>2025-08-31T09:47:14.000Z</time>
      </trkpt>
      <trkpt lat="44.15882" lon="0.58213">
        <ele>91.7</ele>
        <time>2025-08-31T09:47:22.000Z</time>
      </trkpt>
      <trkpt lat="44.15889" lon="0.58205">
        <ele>91.8</ele>
        <time>2025-08-31T09:47:30.000Z</time>
      </trkpt>
      <trkpt lat="44.15896" lon="0.58198">
        <ele>91.7</ele>
        <time>2025-08-31T09:47:36.000Z</time>
      </trkpt>
      <trkpt lat="44.15903" lon="0.5819">
        <ele>91.6</ele>
        <time>2025-08-31T09:47:44.000Z</time>
      </trkpt>
      <trkpt lat="44.1591" lon="0.58179">
        <ele>91.3</ele>
        <time>2025-08-31T09:47:54.000Z</time>
      </trkpt>
      <trkpt lat="44.15917" lon="0.58166">
        <ele>91</ele>
        <time>2025-08-31T09:48:02.000Z</time>
      </trkpt>
      <trkpt lat="44.15923" lon="0.58153">
        <ele>90.5</ele>
        <time>2025-08-31T09:48:10.000Z</time>
      </trkpt>
      <trkpt lat="44.1593" lon="0.58144">
        <ele>90.3</ele>
        <time>2025-08-31T09:48:16.000Z</time>
      </trkpt>
      <trkpt lat="44.15938" lon="0.58138">
        <ele>90.5</ele>
        <time>2025-08-31T09:48:24.000Z</time>
      </trkpt>
      <trkpt lat="44.15947" lon="0.58131">
        <ele>90.5</ele>
        <time>2025-08-31T09:48:32.000Z</time>
      </trkpt>
      <trkpt lat="44.15954" lon="0.58124">
        <ele>90.1</ele>
        <time>2025-08-31T09:48:40.000Z</time>
      </trkpt>
      <trkpt lat="44.1596" lon="0.58115">
        <ele>89.4</ele>
        <time>2025-08-31T09:48:48.000Z</time>
      </trkpt>
      <trkpt lat="44.15967" lon="0.58109">
        <ele>88.8</ele>
        <time>2025-08-31T09:48:56.000Z</time>
      </trkpt>
      <trkpt lat="44.15975" lon="0.58102">
        <ele>88.6</ele>
        <time>2025-08-31T09:49:06.000Z</time>
      </trkpt>
      <trkpt lat="44.15983" lon="0.58096">
        <ele>88.5</ele>
        <time>2025-08-31T09:49:16.000Z</time>
      </trkpt>
      <trkpt lat="44.15991" lon="0.5809">
        <ele>88.3</ele>
        <time>2025-08-31T09:49:23.000Z</time>
      </trkpt>
      <trkpt lat="44.15999" lon="0.58085">
        <ele>88.2</ele>
        <time>2025-08-31T09:49:30.000Z</time>
      </trkpt>
      <trkpt lat="44.16008" lon="0.58078">
        <ele>87.5</ele>
        <time>2025-08-31T09:49:40.000Z</time>
      </trkpt>
      <trkpt lat="44.16016" lon="0.58071">
        <ele>86.9</ele>
        <time>2025-08-31T09:49:48.000Z</time>
      </trkpt>
      <trkpt lat="44.16023" lon="0.58064">
        <ele>86.5</ele>
        <time>2025-08-31T09:49:56.000Z</time>
      </trkpt>
      <trkpt lat="44.16031" lon="0.58056">
        <ele>86</ele>
        <time>2025-08-31T09:50:04.000Z</time>
      </trkpt>
      <trkpt lat="44.1604" lon="0.5805">
        <ele>85.5</ele>
        <time>2025-08-31T09:50:12.000Z</time>
      </trkpt>
      <trkpt lat="44.16049" lon="0.58046">
        <ele>85.2</ele>
        <time>2025-08-31T09:50:20.000Z</time>
      </trkpt>
      <trkpt lat="44.16058" lon="0.5804">
        <ele>84.8</ele>
        <time>2025-08-31T09:50:28.000Z</time>
      </trkpt>
      <trkpt lat="44.16067" lon="0.58038">
        <ele>84.4</ele>
        <time>2025-08-31T09:50:37.000Z</time>
      </trkpt>
      <trkpt lat="44.16076" lon="0.58035">
        <ele>83.9</ele>
        <time>2025-08-31T09:50:46.000Z</time>
      </trkpt>
      <trkpt lat="44.16085" lon="0.5803">
        <ele>83.3</ele>
        <time>2025-08-31T09:50:55.000Z</time>
      </trkpt>
      <trkpt lat="44.16094" lon="0.58028">
        <ele>83.4</ele>
        <time>2025-08-31T09:51:03.000Z</time>
      </trkpt>
      <trkpt lat="44.16102" lon="0.58024">
        <ele>83.4</ele>
        <time>2025-08-31T09:51:11.000Z</time>
      </trkpt>
      <trkpt lat="44.1611" lon="0.58019">
        <ele>83.1</ele>
        <time>2025-08-31T09:51:19.000Z</time>
      </trkpt>
      <trkpt lat="44.1612" lon="0.58016">
        <ele>82.3</ele>
        <time>2025-08-31T09:51:27.000Z</time>
      </trkpt>
      <trkpt lat="44.16129" lon="0.58014">
        <ele>81.5</ele>
        <time>2025-08-31T09:51:35.000Z</time>
      </trkpt>
      <trkpt lat="44.16138" lon="0.58014">
        <ele>81</ele>
        <time>2025-08-31T09:51:43.000Z</time>
      </trkpt>
      <trkpt lat="44.16148" lon="0.58011">
        <ele>80.7</ele>
        <time>2025-08-31T09:51:51.000Z</time>
      </trkpt>
      <trkpt lat="44.16158" lon="0.58007">
        <ele>80.3</ele>
        <time>2025-08-31T09:51:59.000Z</time>
      </trkpt>
      <trkpt lat="44.16168" lon="0.58">
        <ele>80</ele>
        <time>2025-08-31T09:52:09.000Z</time>
      </trkpt>
      <trkpt lat="44.16176" lon="0.57991">
        <ele>79.8</ele>
        <time>2025-08-31T09:52:17.000Z</time>
      </trkpt>
      <trkpt lat="44.16184" lon="0.5798">
        <ele>79.1</ele>
        <time>2025-08-31T09:52:27.000Z</time>
      </trkpt>
      <trkpt lat="44.16193" lon="0.57973">
        <ele>78.1</ele>
        <time>2025-08-31T09:52:35.000Z</time>
      </trkpt>
      <trkpt lat="44.16202" lon="0.57967">
        <ele>78</ele>
        <time>2025-08-31T09:52:41.000Z</time>
      </trkpt>
      <trkpt lat="44.16211" lon="0.57962">
        <ele>77.8</ele>
        <time>2025-08-31T09:52:51.000Z</time>
      </trkpt>
      <trkpt lat="44.16221" lon="0.57959">
        <ele>77.5</ele>
        <time>2025-08-31T09:52:59.000Z</time>
      </trkpt>
      <trkpt lat="44.16232" lon="0.57957">
        <ele>77.1</ele>
        <time>2025-08-31T09:53:09.000Z</time>
      </trkpt>
      <trkpt lat="44.16242" lon="0.57954">
        <ele>76.6</ele>
        <time>2025-08-31T09:53:17.000Z</time>
      </trkpt>
      <trkpt lat="44.16251" lon="0.57953">
        <ele>76.3</ele>
        <time>2025-08-31T09:53:25.000Z</time>
      </trkpt>
      <trkpt lat="44.16261" lon="0.57956">
        <ele>76.4</ele>
        <time>2025-08-31T09:53:41.000Z</time>
      </trkpt>
      <trkpt lat="44.16271" lon="0.57961">
        <ele>76.6</ele>
        <time>2025-08-31T09:53:49.000Z</time>
      </trkpt>
      <trkpt lat="44.1628" lon="0.57964">
        <ele>76.6</ele>
        <time>2025-08-31T09:53:57.000Z</time>
      </trkpt>
      <trkpt lat="44.1629" lon="0.57964">
        <ele>76.3</ele>
        <time>2025-08-31T09:54:05.000Z</time>
      </trkpt>
      <trkpt lat="44.16299" lon="0.57962">
        <ele>75.9</ele>
        <time>2025-08-31T09:54:13.000Z</time>
      </trkpt>
      <trkpt lat="44.16307" lon="0.57955">
        <ele>75.3</ele>
        <time>2025-08-31T09:54:21.000Z</time>
      </trkpt>
      <trkpt lat="44.16311" lon="0.57943">
        <ele>75</ele>
        <time>2025-08-31T09:54:29.000Z</time>
      </trkpt>
      <trkpt lat="44.16313" lon="0.57929">
        <ele>75</ele>
        <time>2025-08-31T09:54:37.000Z</time>
      </trkpt>
      <trkpt lat="44.16316" lon="0.57915">
        <ele>75</ele>
        <time>2025-08-31T09:54:47.000Z</time>
      </trkpt>
      <trkpt lat="44.16319" lon="0.57903">
        <ele>75</ele>
        <time>2025-08-31T09:54:55.000Z</time>
      </trkpt>
      <trkpt lat="44.16322" lon="0.5789">
        <ele>75</ele>
        <time>2025-08-31T09:55:05.000Z</time>
      </trkpt>
      <trkpt lat="44.16322" lon="0.57876">
        <ele>75.5</ele>
        <time>2025-08-31T09:55:15.000Z</time>
      </trkpt>
      <trkpt lat="44.16318" lon="0.57866">
        <ele>75.8</ele>
        <time>2025-08-31T09:55:23.000Z</time>
      </trkpt>
      <trkpt lat="44.16311" lon="0.57858">
        <ele>76</ele>
        <time>2025-08-31T09:56:27.000Z</time>
      </trkpt>
      <trkpt lat="44.16304" lon="0.57848">
        <ele>76</ele>
        <time>2025-08-31T09:56:33.000Z</time>
      </trkpt>
      <trkpt lat="44.16297" lon="0.5784">
        <ele>76</ele>
        <time>2025-08-31T09:56:41.000Z</time>
      </trkpt>
      <trkpt lat="44.1629" lon="0.57831">
        <ele>76.1</ele>
        <time>2025-08-31T09:56:51.000Z</time>
      </trkpt>
      <trkpt lat="44.16282" lon="0.57823">
        <ele>76.3</ele>
        <time>2025-08-31T09:57:00.000Z</time>
      </trkpt>
      <trkpt lat="44.16278" lon="0.57811">
        <ele>76.8</ele>
        <time>2025-08-31T09:58:35.000Z</time>
      </trkpt>
      <trkpt lat="44.16276" lon="0.57797">
        <ele>77</ele>
        <time>2025-08-31T09:58:47.000Z</time>
      </trkpt>
      <trkpt lat="44.16273" lon="0.57785">
        <ele>76.9</ele>
        <time>2025-08-31T09:58:55.000Z</time>
      </trkpt>
      <trkpt lat="44.16272" lon="0.57772">
        <ele>77</ele>
        <time>2025-08-31T09:59:03.000Z</time>
      </trkpt>
      <trkpt lat="44.16273" lon="0.57759">
        <ele>77</ele>
        <time>2025-08-31T09:59:11.000Z</time>
      </trkpt>
      <trkpt lat="44.16275" lon="0.57747">
        <ele>77</ele>
        <time>2025-08-31T09:59:19.000Z</time>
      </trkpt>
      <trkpt lat="44.16278" lon="0.57734">
        <ele>77</ele>
        <time>2025-08-31T09:59:33.000Z</time>
      </trkpt>
      <trkpt lat="44.1628" lon="0.57722">
        <ele>77</ele>
        <time>2025-08-31T09:59:39.000Z</time>
      </trkpt>
      <trkpt lat="44.16281" lon="0.57709">
        <ele>77.4</ele>
        <time>2025-08-31T09:59:47.000Z</time>
      </trkpt>
      <trkpt lat="44.16284" lon="0.57697">
        <ele>77.7</ele>
        <time>2025-08-31T09:59:55.000Z</time>
      </trkpt>
      <trkpt lat="44.16291" lon="0.57691">
        <ele>77.6</ele>
        <time>2025-08-31T10:00:05.000Z</time>
      </trkpt>
      <trkpt lat="44.163" lon="0.5769">
        <ele>77.3</ele>
        <time>2025-08-31T10:00:13.000Z</time>
      </trkpt>
      <trkpt lat="44.16307" lon="0.57696">
        <ele>77.1</ele>
        <time>2025-08-31T10:00:21.000Z</time>
      </trkpt>
      <trkpt lat="44.16315" lon="0.57703">
        <ele>77.2</ele>
        <time>2025-08-31T10:00:29.000Z</time>
      </trkpt>
      <trkpt lat="44.16325" lon="0.57705">
        <ele>77.4</ele>
        <time>2025-08-31T10:00:37.000Z</time>
      </trkpt>
      <trkpt lat="44.16334" lon="0.57705">
        <ele>77.6</ele>
        <time>2025-08-31T10:00:45.000Z</time>
      </trkpt>
      <trkpt lat="44.16343" lon="0.57711">
        <ele>77.4</ele>
        <time>2025-08-31T10:00:53.000Z</time>
      </trkpt>
      <trkpt lat="44.16352" lon="0.57716">
        <ele>77.2</ele>
        <time>2025-08-31T10:01:01.000Z</time>
      </trkpt>
      <trkpt lat="44.1636" lon="0.57721">
        <ele>77</ele>
        <time>2025-08-31T10:01:11.000Z</time>
      </trkpt>
      <trkpt lat="44.16368" lon="0.57728">
        <ele>76.8</ele>
        <time>2025-08-31T10:01:19.000Z</time>
      </trkpt>
      <trkpt lat="44.16378" lon="0.57732">
        <ele>76.6</ele>
        <time>2025-08-31T10:01:27.000Z</time>
      </trkpt>
      <trkpt lat="44.16386" lon="0.57738">
        <ele>76.4</ele>
        <time>2025-08-31T10:01:35.000Z</time>
      </trkpt>
      <trkpt lat="44.16395" lon="0.57744">
        <ele>76.4</ele>
        <time>2025-08-31T10:01:43.000Z</time>
      </trkpt>
      <trkpt lat="44.16403" lon="0.5775">
        <ele>76.5</ele>
        <time>2025-08-31T10:01:51.000Z</time>
      </trkpt>
      <trkpt lat="44.16412" lon="0.57755">
        <ele>76.7</ele>
        <time>2025-08-31T10:02:00.000Z</time>
      </trkpt>
      <trkpt lat="44.16421" lon="0.57761">
        <ele>76.5</ele>
        <time>2025-08-31T10:02:08.000Z</time>
      </trkpt>
      <trkpt lat="44.1643" lon="0.57765">
        <ele>76.2</ele>
        <time>2025-08-31T10:02:15.000Z</time>
      </trkpt>
      <trkpt lat="44.16439" lon="0.5777">
        <ele>76.1</ele>
        <time>2025-08-31T10:02:23.000Z</time>
      </trkpt>
      <trkpt lat="44.16447" lon="0.57777">
        <ele>76</ele>
        <time>2025-08-31T10:02:31.000Z</time>
      </trkpt>
      <trkpt lat="44.16457" lon="0.57782">
        <ele>75.9</ele>
        <time>2025-08-31T10:02:39.000Z</time>
      </trkpt>
      <trkpt lat="44.16467" lon="0.57785">
        <ele>75.9</ele>
        <time>2025-08-31T10:02:47.000Z</time>
      </trkpt>
      <trkpt lat="44.16476" lon="0.57786">
        <ele>76</ele>
        <time>2025-08-31T10:02:55.000Z</time>
      </trkpt>
      <trkpt lat="44.16485" lon="0.57789">
        <ele>76</ele>
        <time>2025-08-31T10:03:04.000Z</time>
      </trkpt>
      <trkpt lat="44.16495" lon="0.57795">
        <ele>76</ele>
        <time>2025-08-31T10:03:12.000Z</time>
      </trkpt>
      <trkpt lat="44.16505" lon="0.57798">
        <ele>75.9</ele>
        <time>2025-08-31T10:03:20.000Z</time>
      </trkpt>
      <trkpt lat="44.16514" lon="0.57802">
        <ele>75.6</ele>
        <time>2025-08-31T10:03:28.000Z</time>
      </trkpt>
      <trkpt lat="44.16522" lon="0.57808">
        <ele>75.2</ele>
        <time>2025-08-31T10:03:36.000Z</time>
      </trkpt>
      <trkpt lat="44.16531" lon="0.57813">
        <ele>75</ele>
        <time>2025-08-31T10:03:44.000Z</time>
      </trkpt>
      <trkpt lat="44.1654" lon="0.57817">
        <ele>75</ele>
        <time>2025-08-31T10:03:52.000Z</time>
      </trkpt>
      <trkpt lat="44.16548" lon="0.57822">
        <ele>75</ele>
        <time>2025-08-31T10:04:00.000Z</time>
      </trkpt>
      <trkpt lat="44.16557" lon="0.57827">
        <ele>75</ele>
        <time>2025-08-31T10:04:08.000Z</time>
      </trkpt>
      <trkpt lat="44.16567" lon="0.57829">
        <ele>74.7</ele>
        <time>2025-08-31T10:04:16.000Z</time>
      </trkpt>
      <trkpt lat="44.16577" lon="0.5783">
        <ele>74.3</ele>
        <time>2025-08-31T10:04:26.000Z</time>
      </trkpt>
      <trkpt lat="44.16587" lon="0.57829">
        <ele>74.2</ele>
        <time>2025-08-31T10:04:36.000Z</time>
      </trkpt>
      <trkpt lat="44.16592" lon="0.57819">
        <ele>74.5</ele>
        <time>2025-08-31T10:05:37.000Z</time>
      </trkpt>
      <trkpt lat="44.16594" lon="0.57805">
        <ele>75</ele>
        <time>2025-08-31T10:05:46.000Z</time>
      </trkpt>
      <trkpt lat="44.16598" lon="0.57791">
        <ele>75</ele>
        <time>2025-08-31T10:05:57.000Z</time>
      </trkpt>
      <trkpt lat="44.16599" lon="0.57777">
        <ele>75</ele>
        <time>2025-08-31T10:06:06.000Z</time>
      </trkpt>
      <trkpt lat="44.16601" lon="0.57763">
        <ele>75.2</ele>
        <time>2025-08-31T10:06:14.000Z</time>
      </trkpt>
      <trkpt lat="44.16602" lon="0.5775">
        <ele>75.3</ele>
        <time>2025-08-31T10:06:30.000Z</time>
      </trkpt>
      <trkpt lat="44.16603" lon="0.57737">
        <ele>75.3</ele>
        <time>2025-08-31T10:06:38.000Z</time>
      </trkpt>
      <trkpt lat="44.16604" lon="0.57724">
        <ele>75.2</ele>
        <time>2025-08-31T10:06:45.000Z</time>
      </trkpt>
      <trkpt lat="44.16605" lon="0.57712">
        <ele>75.2</ele>
        <time>2025-08-31T10:06:53.000Z</time>
      </trkpt>
      <trkpt lat="44.16607" lon="0.577">
        <ele>75.1</ele>
        <time>2025-08-31T10:07:01.000Z</time>
      </trkpt>
      <trkpt lat="44.16608" lon="0.57688">
        <ele>75.3</ele>
        <time>2025-08-31T10:07:08.000Z</time>
      </trkpt>
      <trkpt lat="44.1661" lon="0.57675">
        <ele>75.7</ele>
        <time>2025-08-31T10:07:16.000Z</time>
      </trkpt>
      <trkpt lat="44.16612" lon="0.57662">
        <ele>75.8</ele>
        <time>2025-08-31T10:07:24.000Z</time>
      </trkpt>
      <trkpt lat="44.16614" lon="0.57649">
        <ele>75.3</ele>
        <time>2025-08-31T10:07:32.000Z</time>
      </trkpt>
      <trkpt lat="44.16617" lon="0.57636">
        <ele>74.9</ele>
        <time>2025-08-31T10:07:40.000Z</time>
      </trkpt>
      <trkpt lat="44.16622" lon="0.57624">
        <ele>74.7</ele>
        <time>2025-08-31T10:07:49.000Z</time>
      </trkpt>
      <trkpt lat="44.16629" lon="0.57615">
        <ele>74.7</ele>
        <time>2025-08-31T10:07:56.000Z</time>
      </trkpt>
      <trkpt lat="44.16638" lon="0.57606">
        <ele>74.8</ele>
        <time>2025-08-31T10:08:05.000Z</time>
      </trkpt>
      <trkpt lat="44.16646" lon="0.57599">
        <ele>74.7</ele>
        <time>2025-08-31T10:08:13.000Z</time>
      </trkpt>
      <trkpt lat="44.16654" lon="0.57592">
        <ele>74.7</ele>
        <time>2025-08-31T10:08:23.000Z</time>
      </trkpt>
      <trkpt lat="44.16663" lon="0.57591">
        <ele>74.9</ele>
        <time>2025-08-31T10:08:30.000Z</time>
      </trkpt>
      <trkpt lat="44.16674" lon="0.57592">
        <ele>74.9</ele>
        <time>2025-08-31T10:08:41.000Z</time>
      </trkpt>
      <trkpt lat="44.16684" lon="0.57596">
        <ele>74.7</ele>
        <time>2025-08-31T10:08:50.000Z</time>
      </trkpt>
      <trkpt lat="44.16693" lon="0.57591">
        <ele>74.7</ele>
        <time>2025-08-31T10:10:32.000Z</time>
        <extensions>
          <visugpx:TrkExtension xmlns:visugpx="https://www.visugpx.com/editgpx/">
            <visugpx:node>1</visugpx:node>
            </visugpx:TrkExtension>
        </extensions>
      </trkpt>
    </trkseg>
  </trk>
</gpx>